<?xml version="1.0" encoding="UTF-8" standalone="no" ?>
<gpx xmlns="http://www.topografix.com/GPX/1/1" xmlns:xsi="http://www.w3.org/2001/XMLSchema-instance" xsi:schemaLocation="http://www.topografix.com/GPX/1/1 http://www.topografix.com/GPX/1/1/gpx.xsd" version="1.1" creator="VisuGPX - https://www.visugpx.com">
  <metadata>
    <name>16-06-2017 Ciney (autour de)</name>
    <desc><![CDATA[Itinéraire de détente en vélo électrique (VTC). ]]></desc>
  </metadata>
  <trk>
    <name><![CDATA[Tracé 16 juin 2017 17:21:27]]></name>
    <trkseg>
      <trkpt lat="50.29441" lon="5.0954">
        <ele>187.23308621247</ele>
        <time>2017-06-16T15:21:27Z</time>
      </trkpt>
      <trkpt lat="50.29441" lon="5.0954">
        <ele>187.23308621247</ele>
        <time>2017-06-16T15:22:12Z</time>
      </trkpt>
      <trkpt lat="50.29416" lon="5.09556">
        <ele>286.66852829546</ele>
        <time>2017-06-16T15:22:17Z</time>
      </trkpt>
      <trkpt lat="50.294" lon="5.09577">
        <ele>334.49007614329</ele>
        <time>2017-06-16T15:22:21Z</time>
      </trkpt>
      <trkpt lat="50.29405" lon="5.09585">
        <ele>330.80749427709</ele>
        <time>2017-06-16T15:22:37Z</time>
      </trkpt>
      <trkpt lat="50.29417" lon="5.09608">
        <ele>337.5125761699</ele>
        <time>2017-06-16T15:22:41Z</time>
      </trkpt>
      <trkpt lat="50.29433" lon="5.09643">
        <ele>347.00048024309</ele>
        <time>2017-06-16T15:22:46Z</time>
      </trkpt>
      <trkpt lat="50.29459" lon="5.09647">
        <ele>288.94129277106</ele>
        <time>2017-06-16T15:22:50Z</time>
      </trkpt>
      <trkpt lat="50.2947" lon="5.09667">
        <ele>274.86734683981</ele>
        <time>2017-06-16T15:22:54Z</time>
      </trkpt>
      <trkpt lat="50.29482" lon="5.09683">
        <ele>272.79515743335</ele>
        <time>2017-06-16T15:22:58Z</time>
      </trkpt>
      <trkpt lat="50.29495" lon="5.09707">
        <ele>270.51025167148</ele>
        <time>2017-06-16T15:23:02Z</time>
      </trkpt>
      <trkpt lat="50.29512" lon="5.09732">
        <ele>265.62035591386</ele>
        <time>2017-06-16T15:23:06Z</time>
      </trkpt>
      <trkpt lat="50.29529" lon="5.0976">
        <ele>261.8837500408</ele>
        <time>2017-06-16T15:23:10Z</time>
      </trkpt>
      <trkpt lat="50.29545" lon="5.09787">
        <ele>260.42988936435</ele>
        <time>2017-06-16T15:23:14Z</time>
      </trkpt>
      <trkpt lat="50.29566" lon="5.09821">
        <ele>260.10762450476</ele>
        <time>2017-06-16T15:23:19Z</time>
      </trkpt>
      <trkpt lat="50.29584" lon="5.09846">
        <ele>260.81744873882</ele>
        <time>2017-06-16T15:23:23Z</time>
      </trkpt>
      <trkpt lat="50.29601" lon="5.09874">
        <ele>262.07527235521</ele>
        <time>2017-06-16T15:23:27Z</time>
      </trkpt>
      <trkpt lat="50.29622" lon="5.09902">
        <ele>264.17449751867</ele>
        <time>2017-06-16T15:23:32Z</time>
      </trkpt>
      <trkpt lat="50.29642" lon="5.09917">
        <ele>265.70208916556</ele>
        <time>2017-06-16T15:23:37Z</time>
      </trkpt>
      <trkpt lat="50.29665" lon="5.09935">
        <ele>268.42053000073</ele>
        <time>2017-06-16T15:23:42Z</time>
      </trkpt>
      <trkpt lat="50.29677" lon="5.09964">
        <ele>270.23464074543</ele>
        <time>2017-06-16T15:23:47Z</time>
      </trkpt>
      <trkpt lat="50.29666" lon="5.09987">
        <ele>271.55533566857</ele>
        <time>2017-06-16T15:23:51Z</time>
      </trkpt>
      <trkpt lat="50.29664" lon="5.1001">
        <ele>272.55200016428</ele>
        <time>2017-06-16T15:23:55Z</time>
      </trkpt>
      <trkpt lat="50.29677" lon="5.10028">
        <ele>273.32424415982</ele>
        <time>2017-06-16T15:23:59Z</time>
      </trkpt>
      <trkpt lat="50.29696" lon="5.10058">
        <ele>274.90318294065</ele>
        <time>2017-06-16T15:24:04Z</time>
      </trkpt>
      <trkpt lat="50.2971" lon="5.10076">
        <ele>275.05001914286</ele>
        <time>2017-06-16T15:24:08Z</time>
      </trkpt>
      <trkpt lat="50.29724" lon="5.10088">
        <ele>274.72741385248</ele>
        <time>2017-06-16T15:24:12Z</time>
      </trkpt>
      <trkpt lat="50.29734" lon="5.10105">
        <ele>275.96563285702</ele>
        <time>2017-06-16T15:24:16Z</time>
      </trkpt>
      <trkpt lat="50.29741" lon="5.10118">
        <ele>276.25835437746</ele>
        <time>2017-06-16T15:24:20Z</time>
      </trkpt>
      <trkpt lat="50.29733" lon="5.10129">
        <ele>276.4803883253</ele>
        <time>2017-06-16T15:24:24Z</time>
      </trkpt>
      <trkpt lat="50.29714" lon="5.1016">
        <ele>275.22062541366</ele>
        <time>2017-06-16T15:24:29Z</time>
      </trkpt>
      <trkpt lat="50.29697" lon="5.10185">
        <ele>272.04653807286</ele>
        <time>2017-06-16T15:24:33Z</time>
      </trkpt>
      <trkpt lat="50.29703" lon="5.10216">
        <ele>269.72784527219</ele>
        <time>2017-06-16T15:24:38Z</time>
      </trkpt>
      <trkpt lat="50.29718" lon="5.10243">
        <ele>269.90822448258</ele>
        <time>2017-06-16T15:24:42Z</time>
      </trkpt>
      <trkpt lat="50.2972" lon="5.10277">
        <ele>268.04236703863</ele>
        <time>2017-06-16T15:24:47Z</time>
      </trkpt>
      <trkpt lat="50.29706" lon="5.10295">
        <ele>266.23558434278</ele>
        <time>2017-06-16T15:24:51Z</time>
      </trkpt>
      <trkpt lat="50.2968" lon="5.10314">
        <ele>266.0766539588</ele>
        <time>2017-06-16T15:24:56Z</time>
      </trkpt>
      <trkpt lat="50.29656" lon="5.1034">
        <ele>268.12514766368</ele>
        <time>2017-06-16T15:25:01Z</time>
      </trkpt>
      <trkpt lat="50.29636" lon="5.10359">
        <ele>268.90432623892</ele>
        <time>2017-06-16T15:25:05Z</time>
      </trkpt>
      <trkpt lat="50.29616" lon="5.1038">
        <ele>267.77040041671</ele>
        <time>2017-06-16T15:25:09Z</time>
      </trkpt>
      <trkpt lat="50.29593" lon="5.10406">
        <ele>266.37899277033</ele>
        <time>2017-06-16T15:25:14Z</time>
      </trkpt>
      <trkpt lat="50.29572" lon="5.10433">
        <ele>266.12322671463</ele>
        <time>2017-06-16T15:25:19Z</time>
      </trkpt>
      <trkpt lat="50.2956" lon="5.10452">
        <ele>266.48815046526</ele>
        <time>2017-06-16T15:25:23Z</time>
      </trkpt>
      <trkpt lat="50.29551" lon="5.10466">
        <ele>266.90833652875</ele>
        <time>2017-06-16T15:25:28Z</time>
      </trkpt>
      <trkpt lat="50.29543" lon="5.10477">
        <ele>267.18936524794</ele>
        <time>2017-06-16T15:25:32Z</time>
      </trkpt>
      <trkpt lat="50.29531" lon="5.10496">
        <ele>269.30298089769</ele>
        <time>2017-06-16T15:25:36Z</time>
      </trkpt>
      <trkpt lat="50.29509" lon="5.10533">
        <ele>268.90696735778</ele>
        <time>2017-06-16T15:25:41Z</time>
      </trkpt>
      <trkpt lat="50.29493" lon="5.10563">
        <ele>269.14842270138</ele>
        <time>2017-06-16T15:25:45Z</time>
      </trkpt>
      <trkpt lat="50.29473" lon="5.10602">
        <ele>270.11367264876</ele>
        <time>2017-06-16T15:25:50Z</time>
      </trkpt>
      <trkpt lat="50.29455" lon="5.10639">
        <ele>271.71280916627</ele>
        <time>2017-06-16T15:25:55Z</time>
      </trkpt>
      <trkpt lat="50.29442" lon="5.10665">
        <ele>273.68444899324</ele>
        <time>2017-06-16T15:25:59Z</time>
      </trkpt>
      <trkpt lat="50.29423" lon="5.10699">
        <ele>276.18968561277</ele>
        <time>2017-06-16T15:26:04Z</time>
      </trkpt>
      <trkpt lat="50.29401" lon="5.10708">
        <ele>277.00458560511</ele>
        <time>2017-06-16T15:26:08Z</time>
      </trkpt>
      <trkpt lat="50.29374" lon="5.10693">
        <ele>278.0573714289</ele>
        <time>2017-06-16T15:26:13Z</time>
      </trkpt>
      <trkpt lat="50.29354" lon="5.10691">
        <ele>279.58934759166</ele>
        <time>2017-06-16T15:26:17Z</time>
      </trkpt>
      <trkpt lat="50.29333" lon="5.1071">
        <ele>281.10136895912</ele>
        <time>2017-06-16T15:26:21Z</time>
      </trkpt>
      <trkpt lat="50.29311" lon="5.10735">
        <ele>279.58714515441</ele>
        <time>2017-06-16T15:26:25Z</time>
      </trkpt>
      <trkpt lat="50.29286" lon="5.10759">
        <ele>276.36789651944</ele>
        <time>2017-06-16T15:26:29Z</time>
      </trkpt>
      <trkpt lat="50.29249" lon="5.10776">
        <ele>274.44582621735</ele>
        <time>2017-06-16T15:26:34Z</time>
      </trkpt>
      <trkpt lat="50.29218" lon="5.10788">
        <ele>273.17574564109</ele>
        <time>2017-06-16T15:26:38Z</time>
      </trkpt>
      <trkpt lat="50.29182" lon="5.10801">
        <ele>271.13839789464</ele>
        <time>2017-06-16T15:26:43Z</time>
      </trkpt>
      <trkpt lat="50.29156" lon="5.10812">
        <ele>269.80437386662</ele>
        <time>2017-06-16T15:26:47Z</time>
      </trkpt>
      <trkpt lat="50.29126" lon="5.10825">
        <ele>269.50198527196</ele>
        <time>2017-06-16T15:26:52Z</time>
      </trkpt>
      <trkpt lat="50.29103" lon="5.10835">
        <ele>269.19561800997</ele>
        <time>2017-06-16T15:26:56Z</time>
      </trkpt>
      <trkpt lat="50.29079" lon="5.10845">
        <ele>269.29477330144</ele>
        <time>2017-06-16T15:27:00Z</time>
      </trkpt>
      <trkpt lat="50.29051" lon="5.10861">
        <ele>270.81891179387</ele>
        <time>2017-06-16T15:27:05Z</time>
      </trkpt>
      <trkpt lat="50.2903" lon="5.10873">
        <ele>272.04396171251</ele>
        <time>2017-06-16T15:27:09Z</time>
      </trkpt>
      <trkpt lat="50.29014" lon="5.10883">
        <ele>271.62703625792</ele>
        <time>2017-06-16T15:27:12Z</time>
      </trkpt>
      <trkpt lat="50.28999" lon="5.10902">
        <ele>270.25582892619</ele>
        <time>2017-06-16T15:27:16Z</time>
      </trkpt>
      <trkpt lat="50.28977" lon="5.10909">
        <ele>271.84373993511</ele>
        <time>2017-06-16T15:27:20Z</time>
      </trkpt>
      <trkpt lat="50.28953" lon="5.10918">
        <ele>274.7326919046</ele>
        <time>2017-06-16T15:27:25Z</time>
      </trkpt>
      <trkpt lat="50.28935" lon="5.10928">
        <ele>275.86139987302</ele>
        <time>2017-06-16T15:27:29Z</time>
      </trkpt>
      <trkpt lat="50.28917" lon="5.10944">
        <ele>278.40456026164</ele>
        <time>2017-06-16T15:27:34Z</time>
      </trkpt>
      <trkpt lat="50.28903" lon="5.10963">
        <ele>281.55343533732</ele>
        <time>2017-06-16T15:27:39Z</time>
      </trkpt>
      <trkpt lat="50.2889" lon="5.10975">
        <ele>283.45958159259</ele>
        <time>2017-06-16T15:27:43Z</time>
      </trkpt>
      <trkpt lat="50.28873" lon="5.10995">
        <ele>286.82523809648</ele>
        <time>2017-06-16T15:27:48Z</time>
      </trkpt>
      <trkpt lat="50.28858" lon="5.11012">
        <ele>289.4570431139</ele>
        <time>2017-06-16T15:27:52Z</time>
      </trkpt>
      <trkpt lat="50.28842" lon="5.11028">
        <ele>290.76801757873</ele>
        <time>2017-06-16T15:27:56Z</time>
      </trkpt>
      <trkpt lat="50.28828" lon="5.11044">
        <ele>292.33235994565</ele>
        <time>2017-06-16T15:28:00Z</time>
      </trkpt>
      <trkpt lat="50.2881" lon="5.11063">
        <ele>292.89535156385</ele>
        <time>2017-06-16T15:28:04Z</time>
      </trkpt>
      <trkpt lat="50.2878" lon="5.11089">
        <ele>291.31805569116</ele>
        <time>2017-06-16T15:28:09Z</time>
      </trkpt>
      <trkpt lat="50.28745" lon="5.11117">
        <ele>288.21685487959</ele>
        <time>2017-06-16T15:28:14Z</time>
      </trkpt>
      <trkpt lat="50.28713" lon="5.11135">
        <ele>285.18089963567</ele>
        <time>2017-06-16T15:28:18Z</time>
      </trkpt>
      <trkpt lat="50.28668" lon="5.1115">
        <ele>281.28334925478</ele>
        <time>2017-06-16T15:28:23Z</time>
      </trkpt>
      <trkpt lat="50.28626" lon="5.11157">
        <ele>279.11403076011</ele>
        <time>2017-06-16T15:28:28Z</time>
      </trkpt>
      <trkpt lat="50.28598" lon="5.11157">
        <ele>278.53042053142</ele>
        <time>2017-06-16T15:28:32Z</time>
      </trkpt>
      <trkpt lat="50.28572" lon="5.1116">
        <ele>278.71630655256</ele>
        <time>2017-06-16T15:28:36Z</time>
      </trkpt>
      <trkpt lat="50.28549" lon="5.11174">
        <ele>279.3445462078</ele>
        <time>2017-06-16T15:28:40Z</time>
      </trkpt>
      <trkpt lat="50.28522" lon="5.11197">
        <ele>280.31592654376</ele>
        <time>2017-06-16T15:28:45Z</time>
      </trkpt>
      <trkpt lat="50.28498" lon="5.1121">
        <ele>280.31528666424</ele>
        <time>2017-06-16T15:28:49Z</time>
      </trkpt>
      <trkpt lat="50.28471" lon="5.11221">
        <ele>280.00374397481</ele>
        <time>2017-06-16T15:28:54Z</time>
      </trkpt>
      <trkpt lat="50.28447" lon="5.11233">
        <ele>280.9056195365</ele>
        <time>2017-06-16T15:28:58Z</time>
      </trkpt>
      <trkpt lat="50.28413" lon="5.11249">
        <ele>279.4524169145</ele>
        <time>2017-06-16T15:29:03Z</time>
      </trkpt>
      <trkpt lat="50.28383" lon="5.11243">
        <ele>277.06564047791</ele>
        <time>2017-06-16T15:29:07Z</time>
      </trkpt>
      <trkpt lat="50.28342" lon="5.11229">
        <ele>274.37472551281</ele>
        <time>2017-06-16T15:29:12Z</time>
      </trkpt>
      <trkpt lat="50.28299" lon="5.1123">
        <ele>271.09114631045</ele>
        <time>2017-06-16T15:29:17Z</time>
      </trkpt>
      <trkpt lat="50.28262" lon="5.1124">
        <ele>265.46867360063</ele>
        <time>2017-06-16T15:29:21Z</time>
      </trkpt>
      <trkpt lat="50.28218" lon="5.11226">
        <ele>261.05429531493</ele>
        <time>2017-06-16T15:29:26Z</time>
      </trkpt>
      <trkpt lat="50.28187" lon="5.11209">
        <ele>259.36838494725</ele>
        <time>2017-06-16T15:29:30Z</time>
      </trkpt>
      <trkpt lat="50.2816" lon="5.11196">
        <ele>258.81942025249</ele>
        <time>2017-06-16T15:29:34Z</time>
      </trkpt>
      <trkpt lat="50.28133" lon="5.11188">
        <ele>259.14944542302</ele>
        <time>2017-06-16T15:29:38Z</time>
      </trkpt>
      <trkpt lat="50.28105" lon="5.11181">
        <ele>259.6404271529</ele>
        <time>2017-06-16T15:29:42Z</time>
      </trkpt>
      <trkpt lat="50.28071" lon="5.11173">
        <ele>261.83428644266</ele>
        <time>2017-06-16T15:29:47Z</time>
      </trkpt>
      <trkpt lat="50.28045" lon="5.11167">
        <ele>263.51521733081</ele>
        <time>2017-06-16T15:29:51Z</time>
      </trkpt>
      <trkpt lat="50.28021" lon="5.11161">
        <ele>264.87917575894</ele>
        <time>2017-06-16T15:29:55Z</time>
      </trkpt>
      <trkpt lat="50.27992" lon="5.11154">
        <ele>266.37525761271</ele>
        <time>2017-06-16T15:30:00Z</time>
      </trkpt>
      <trkpt lat="50.27968" lon="5.11149">
        <ele>267.65126011962</ele>
        <time>2017-06-16T15:30:04Z</time>
      </trkpt>
      <trkpt lat="50.27939" lon="5.11142">
        <ele>269.41063440896</ele>
        <time>2017-06-16T15:30:09Z</time>
      </trkpt>
      <trkpt lat="50.2791" lon="5.11141">
        <ele>271.25094132436</ele>
        <time>2017-06-16T15:30:14Z</time>
      </trkpt>
      <trkpt lat="50.27884" lon="5.11141">
        <ele>272.35014875624</ele>
        <time>2017-06-16T15:30:18Z</time>
      </trkpt>
      <trkpt lat="50.27852" lon="5.11142">
        <ele>273.12069844296</ele>
        <time>2017-06-16T15:30:23Z</time>
      </trkpt>
      <trkpt lat="50.27826" lon="5.11141">
        <ele>273.43555279435</ele>
        <time>2017-06-16T15:30:27Z</time>
      </trkpt>
      <trkpt lat="50.27794" lon="5.11141">
        <ele>274.05459870456</ele>
        <time>2017-06-16T15:30:32Z</time>
      </trkpt>
      <trkpt lat="50.27769" lon="5.11141">
        <ele>274.7625330836</ele>
        <time>2017-06-16T15:30:36Z</time>
      </trkpt>
      <trkpt lat="50.27745" lon="5.11141">
        <ele>275.67178934856</ele>
        <time>2017-06-16T15:30:40Z</time>
      </trkpt>
      <trkpt lat="50.27722" lon="5.11141">
        <ele>276.8092246022</ele>
        <time>2017-06-16T15:30:44Z</time>
      </trkpt>
      <trkpt lat="50.27695" lon="5.11141">
        <ele>278.57222984592</ele>
        <time>2017-06-16T15:30:49Z</time>
      </trkpt>
      <trkpt lat="50.27674" lon="5.1114">
        <ele>279.99357459133</ele>
        <time>2017-06-16T15:30:53Z</time>
      </trkpt>
      <trkpt lat="50.27646" lon="5.1114">
        <ele>281.60661969872</ele>
        <time>2017-06-16T15:30:58Z</time>
      </trkpt>
      <trkpt lat="50.27624" lon="5.1114">
        <ele>282.59611815691</ele>
        <time>2017-06-16T15:31:02Z</time>
      </trkpt>
      <trkpt lat="50.27598" lon="5.11139">
        <ele>284.19668150152</ele>
        <time>2017-06-16T15:31:07Z</time>
      </trkpt>
      <trkpt lat="50.27577" lon="5.11139">
        <ele>285.32096719748</ele>
        <time>2017-06-16T15:31:11Z</time>
      </trkpt>
      <trkpt lat="50.27557" lon="5.11138">
        <ele>286.70301769181</ele>
        <time>2017-06-16T15:31:15Z</time>
      </trkpt>
      <trkpt lat="50.27534" lon="5.11137">
        <ele>289.01220709872</ele>
        <time>2017-06-16T15:31:20Z</time>
      </trkpt>
      <trkpt lat="50.27515" lon="5.11137">
        <ele>290.4040722978</ele>
        <time>2017-06-16T15:31:24Z</time>
      </trkpt>
      <trkpt lat="50.27491" lon="5.11139">
        <ele>291.4420069379</ele>
        <time>2017-06-16T15:31:29Z</time>
      </trkpt>
      <trkpt lat="50.27466" lon="5.11139">
        <ele>292.87162360796</ele>
        <time>2017-06-16T15:31:34Z</time>
      </trkpt>
      <trkpt lat="50.27446" lon="5.11141">
        <ele>293.87627218695</ele>
        <time>2017-06-16T15:31:39Z</time>
      </trkpt>
      <trkpt lat="50.27425" lon="5.1114">
        <ele>294.22718683282</ele>
        <time>2017-06-16T15:31:43Z</time>
      </trkpt>
      <trkpt lat="50.27396" lon="5.11143">
        <ele>294.06453304982</ele>
        <time>2017-06-16T15:31:48Z</time>
      </trkpt>
      <trkpt lat="50.27378" lon="5.11144">
        <ele>293.78619376458</ele>
        <time>2017-06-16T15:31:52Z</time>
      </trkpt>
      <trkpt lat="50.27376" lon="5.11157">
        <ele>293.68510026073</ele>
        <time>2017-06-16T15:31:57Z</time>
      </trkpt>
      <trkpt lat="50.27384" lon="5.11175">
        <ele>293.93313944162</ele>
        <time>2017-06-16T15:32:01Z</time>
      </trkpt>
      <trkpt lat="50.27398" lon="5.11203">
        <ele>294.89585344301</ele>
        <time>2017-06-16T15:32:05Z</time>
      </trkpt>
      <trkpt lat="50.2741" lon="5.11227">
        <ele>295.89038028252</ele>
        <time>2017-06-16T15:32:09Z</time>
      </trkpt>
      <trkpt lat="50.27427" lon="5.11259">
        <ele>298.17707558673</ele>
        <time>2017-06-16T15:32:14Z</time>
      </trkpt>
      <trkpt lat="50.27444" lon="5.11291">
        <ele>297.8248408478</ele>
        <time>2017-06-16T15:32:18Z</time>
      </trkpt>
      <trkpt lat="50.27463" lon="5.11327">
        <ele>298.3671411141</ele>
        <time>2017-06-16T15:32:23Z</time>
      </trkpt>
      <trkpt lat="50.27476" lon="5.1135">
        <ele>299.78433863712</ele>
        <time>2017-06-16T15:32:27Z</time>
      </trkpt>
      <trkpt lat="50.27493" lon="5.11382">
        <ele>299.55713390742</ele>
        <time>2017-06-16T15:32:32Z</time>
      </trkpt>
      <trkpt lat="50.27506" lon="5.11408">
        <ele>300.20486692625</ele>
        <time>2017-06-16T15:32:36Z</time>
      </trkpt>
      <trkpt lat="50.27526" lon="5.11446">
        <ele>301.3285890659</ele>
        <time>2017-06-16T15:32:41Z</time>
      </trkpt>
      <trkpt lat="50.27544" lon="5.11482">
        <ele>302.0055915365</ele>
        <time>2017-06-16T15:32:46Z</time>
      </trkpt>
      <trkpt lat="50.27555" lon="5.11502">
        <ele>304.65453174269</ele>
        <time>2017-06-16T15:32:50Z</time>
      </trkpt>
      <trkpt lat="50.27578" lon="5.11544">
        <ele>308.33673880714</ele>
        <time>2017-06-16T15:32:55Z</time>
      </trkpt>
      <trkpt lat="50.27597" lon="5.11579">
        <ele>309.55295073941</ele>
        <time>2017-06-16T15:33:00Z</time>
      </trkpt>
      <trkpt lat="50.27611" lon="5.11603">
        <ele>308.7411853284</ele>
        <time>2017-06-16T15:33:04Z</time>
      </trkpt>
      <trkpt lat="50.27626" lon="5.1163">
        <ele>309.373238698</ele>
        <time>2017-06-16T15:33:08Z</time>
      </trkpt>
      <trkpt lat="50.27644" lon="5.11663">
        <ele>310.58178862662</ele>
        <time>2017-06-16T15:33:12Z</time>
      </trkpt>
      <trkpt lat="50.27662" lon="5.11697">
        <ele>310.17397873272</ele>
        <time>2017-06-16T15:33:16Z</time>
      </trkpt>
      <trkpt lat="50.27678" lon="5.11728">
        <ele>309.09779493633</ele>
        <time>2017-06-16T15:33:20Z</time>
      </trkpt>
      <trkpt lat="50.27697" lon="5.11766">
        <ele>309.00374613457</ele>
        <time>2017-06-16T15:33:25Z</time>
      </trkpt>
      <trkpt lat="50.27715" lon="5.11803">
        <ele>309.64241270642</ele>
        <time>2017-06-16T15:33:30Z</time>
      </trkpt>
      <trkpt lat="50.2773" lon="5.11833">
        <ele>309.48585649203</ele>
        <time>2017-06-16T15:33:34Z</time>
      </trkpt>
      <trkpt lat="50.27749" lon="5.11869">
        <ele>309.35799834548</ele>
        <time>2017-06-16T15:33:39Z</time>
      </trkpt>
      <trkpt lat="50.27765" lon="5.11896">
        <ele>309.63193861853</ele>
        <time>2017-06-16T15:33:43Z</time>
      </trkpt>
      <trkpt lat="50.27784" lon="5.11926">
        <ele>309.24583854014</ele>
        <time>2017-06-16T15:33:47Z</time>
      </trkpt>
      <trkpt lat="50.27803" lon="5.11958">
        <ele>308.7210831374</ele>
        <time>2017-06-16T15:33:51Z</time>
      </trkpt>
      <trkpt lat="50.2783" lon="5.11999">
        <ele>307.72070610366</ele>
        <time>2017-06-16T15:33:56Z</time>
      </trkpt>
      <trkpt lat="50.2785" lon="5.12029">
        <ele>306.95071510052</ele>
        <time>2017-06-16T15:34:00Z</time>
      </trkpt>
      <trkpt lat="50.2787" lon="5.12056">
        <ele>306.82793995721</ele>
        <time>2017-06-16T15:34:04Z</time>
      </trkpt>
      <trkpt lat="50.27895" lon="5.1209">
        <ele>306.91297107409</ele>
        <time>2017-06-16T15:34:09Z</time>
      </trkpt>
      <trkpt lat="50.27919" lon="5.12123">
        <ele>306.97132978619</ele>
        <time>2017-06-16T15:34:14Z</time>
      </trkpt>
      <trkpt lat="50.27938" lon="5.12148">
        <ele>306.86696342715</ele>
        <time>2017-06-16T15:34:18Z</time>
      </trkpt>
      <trkpt lat="50.27938" lon="5.1217">
        <ele>306.58724505241</ele>
        <time>2017-06-16T15:34:22Z</time>
      </trkpt>
      <trkpt lat="50.27923" lon="5.12186">
        <ele>306.96411080799</ele>
        <time>2017-06-16T15:34:26Z</time>
      </trkpt>
      <trkpt lat="50.27902" lon="5.12206">
        <ele>308.69106338426</ele>
        <time>2017-06-16T15:34:30Z</time>
      </trkpt>
      <trkpt lat="50.27881" lon="5.12228">
        <ele>308.22209014037</ele>
        <time>2017-06-16T15:34:34Z</time>
      </trkpt>
      <trkpt lat="50.27856" lon="5.12245">
        <ele>305.89259038654</ele>
        <time>2017-06-16T15:34:38Z</time>
      </trkpt>
      <trkpt lat="50.27825" lon="5.12261">
        <ele>302.57604464268</ele>
        <time>2017-06-16T15:34:43Z</time>
      </trkpt>
      <trkpt lat="50.27799" lon="5.12277">
        <ele>300.14760943991</ele>
        <time>2017-06-16T15:34:47Z</time>
      </trkpt>
      <trkpt lat="50.27772" lon="5.12299">
        <ele>298.08733839753</ele>
        <time>2017-06-16T15:34:52Z</time>
      </trkpt>
      <trkpt lat="50.27755" lon="5.12313">
        <ele>297.2137188517</ele>
        <time>2017-06-16T15:34:56Z</time>
      </trkpt>
      <trkpt lat="50.27737" lon="5.12327">
        <ele>297.6142609488</ele>
        <time>2017-06-16T15:35:01Z</time>
      </trkpt>
      <trkpt lat="50.27722" lon="5.12341">
        <ele>299.24375543366</ele>
        <time>2017-06-16T15:35:05Z</time>
      </trkpt>
      <trkpt lat="50.27708" lon="5.12369">
        <ele>299.89029313683</ele>
        <time>2017-06-16T15:35:10Z</time>
      </trkpt>
      <trkpt lat="50.27698" lon="5.12399">
        <ele>299.21794176618</ele>
        <time>2017-06-16T15:35:14Z</time>
      </trkpt>
      <trkpt lat="50.27686" lon="5.12429">
        <ele>298.89303203283</ele>
        <time>2017-06-16T15:35:18Z</time>
      </trkpt>
      <trkpt lat="50.27669" lon="5.12462">
        <ele>299.0855338688</ele>
        <time>2017-06-16T15:35:23Z</time>
      </trkpt>
      <trkpt lat="50.27666" lon="5.12494">
        <ele>298.10015756113</ele>
        <time>2017-06-16T15:35:27Z</time>
      </trkpt>
      <trkpt lat="50.27662" lon="5.12541">
        <ele>294.15109503309</ele>
        <time>2017-06-16T15:35:32Z</time>
      </trkpt>
      <trkpt lat="50.27651" lon="5.1259">
        <ele>290.84167043323</ele>
        <time>2017-06-16T15:35:37Z</time>
      </trkpt>
      <trkpt lat="50.27641" lon="5.12626">
        <ele>290.08834517041</ele>
        <time>2017-06-16T15:35:41Z</time>
      </trkpt>
      <trkpt lat="50.27633" lon="5.12661">
        <ele>289.62892950893</ele>
        <time>2017-06-16T15:35:46Z</time>
      </trkpt>
      <trkpt lat="50.27629" lon="5.12692">
        <ele>287.9587781273</ele>
        <time>2017-06-16T15:35:50Z</time>
      </trkpt>
      <trkpt lat="50.27625" lon="5.12726">
        <ele>285.91800840146</ele>
        <time>2017-06-16T15:35:54Z</time>
      </trkpt>
      <trkpt lat="50.27621" lon="5.12761">
        <ele>284.13904892215</ele>
        <time>2017-06-16T15:35:58Z</time>
      </trkpt>
      <trkpt lat="50.27617" lon="5.12796">
        <ele>282.99621731533</ele>
        <time>2017-06-16T15:36:02Z</time>
      </trkpt>
      <trkpt lat="50.27613" lon="5.12828">
        <ele>281.73189392465</ele>
        <time>2017-06-16T15:36:06Z</time>
      </trkpt>
      <trkpt lat="50.27611" lon="5.12867">
        <ele>279.4931775997</ele>
        <time>2017-06-16T15:36:11Z</time>
      </trkpt>
      <trkpt lat="50.27617" lon="5.12904">
        <ele>278.86929623375</ele>
        <time>2017-06-16T15:36:16Z</time>
      </trkpt>
      <trkpt lat="50.27624" lon="5.12942">
        <ele>279.44431255795</ele>
        <time>2017-06-16T15:36:20Z</time>
      </trkpt>
      <trkpt lat="50.27632" lon="5.1298">
        <ele>278.96778978449</ele>
        <time>2017-06-16T15:36:24Z</time>
      </trkpt>
      <trkpt lat="50.27643" lon="5.13015">
        <ele>278.27827203292</ele>
        <time>2017-06-16T15:36:28Z</time>
      </trkpt>
      <trkpt lat="50.27657" lon="5.13049">
        <ele>278.17688569305</ele>
        <time>2017-06-16T15:36:32Z</time>
      </trkpt>
      <trkpt lat="50.27673" lon="5.13078">
        <ele>277.81078745458</ele>
        <time>2017-06-16T15:36:36Z</time>
      </trkpt>
      <trkpt lat="50.2769" lon="5.13106">
        <ele>277.82047547651</ele>
        <time>2017-06-16T15:36:41Z</time>
      </trkpt>
      <trkpt lat="50.2768" lon="5.1313">
        <ele>275.65721137183</ele>
        <time>2017-06-16T15:36:45Z</time>
      </trkpt>
      <trkpt lat="50.27654" lon="5.1317">
        <ele>273.6175249759</ele>
        <time>2017-06-16T15:36:50Z</time>
      </trkpt>
      <trkpt lat="50.27624" lon="5.13209">
        <ele>272.09591516418</ele>
        <time>2017-06-16T15:36:55Z</time>
      </trkpt>
      <trkpt lat="50.27603" lon="5.13234">
        <ele>270.13390808836</ele>
        <time>2017-06-16T15:36:59Z</time>
      </trkpt>
      <trkpt lat="50.27581" lon="5.13263">
        <ele>268.34675462149</ele>
        <time>2017-06-16T15:37:04Z</time>
      </trkpt>
      <trkpt lat="50.27567" lon="5.13303">
        <ele>268.1729567336</ele>
        <time>2017-06-16T15:37:09Z</time>
      </trkpt>
      <trkpt lat="50.27564" lon="5.13342">
        <ele>271.26331399781</ele>
        <time>2017-06-16T15:37:14Z</time>
      </trkpt>
      <trkpt lat="50.2757" lon="5.13371">
        <ele>275.02997518827</ele>
        <time>2017-06-16T15:37:18Z</time>
      </trkpt>
      <trkpt lat="50.27575" lon="5.13395">
        <ele>277.33615456591</ele>
        <time>2017-06-16T15:37:22Z</time>
      </trkpt>
      <trkpt lat="50.27582" lon="5.13425">
        <ele>279.56226310004</ele>
        <time>2017-06-16T15:37:27Z</time>
      </trkpt>
      <trkpt lat="50.27589" lon="5.13456">
        <ele>282.16077496889</ele>
        <time>2017-06-16T15:37:32Z</time>
      </trkpt>
      <trkpt lat="50.27595" lon="5.13481">
        <ele>283.52061395593</ele>
        <time>2017-06-16T15:37:36Z</time>
      </trkpt>
      <trkpt lat="50.276" lon="5.1351">
        <ele>284.5644393819</ele>
        <time>2017-06-16T15:37:40Z</time>
      </trkpt>
      <trkpt lat="50.27604" lon="5.13548">
        <ele>286.74228524194</ele>
        <time>2017-06-16T15:37:45Z</time>
      </trkpt>
      <trkpt lat="50.27606" lon="5.1359">
        <ele>289.69374315361</ele>
        <time>2017-06-16T15:37:50Z</time>
      </trkpt>
      <trkpt lat="50.27599" lon="5.13623">
        <ele>291.56378226256</ele>
        <time>2017-06-16T15:37:54Z</time>
      </trkpt>
      <trkpt lat="50.27587" lon="5.13647">
        <ele>293.37794924288</ele>
        <time>2017-06-16T15:37:58Z</time>
      </trkpt>
      <trkpt lat="50.27571" lon="5.13666">
        <ele>293.26420334511</ele>
        <time>2017-06-16T15:38:02Z</time>
      </trkpt>
      <trkpt lat="50.2755" lon="5.13688">
        <ele>294.21447357393</ele>
        <time>2017-06-16T15:38:07Z</time>
      </trkpt>
      <trkpt lat="50.27533" lon="5.13705">
        <ele>295.23328609722</ele>
        <time>2017-06-16T15:38:11Z</time>
      </trkpt>
      <trkpt lat="50.27516" lon="5.13721">
        <ele>296.85326516448</ele>
        <time>2017-06-16T15:38:15Z</time>
      </trkpt>
      <trkpt lat="50.27497" lon="5.13746">
        <ele>301.52464913879</ele>
        <time>2017-06-16T15:38:20Z</time>
      </trkpt>
      <trkpt lat="50.27479" lon="5.13778">
        <ele>302.3324721672</ele>
        <time>2017-06-16T15:38:25Z</time>
      </trkpt>
      <trkpt lat="50.27463" lon="5.13815">
        <ele>302.77928880312</ele>
        <time>2017-06-16T15:38:30Z</time>
      </trkpt>
      <trkpt lat="50.2745" lon="5.13845">
        <ele>303.52908113522</ele>
        <time>2017-06-16T15:38:34Z</time>
      </trkpt>
      <trkpt lat="50.27435" lon="5.13873">
        <ele>303.13675003952</ele>
        <time>2017-06-16T15:38:38Z</time>
      </trkpt>
      <trkpt lat="50.27416" lon="5.13909">
        <ele>302.52034560721</ele>
        <time>2017-06-16T15:38:43Z</time>
      </trkpt>
      <trkpt lat="50.274" lon="5.13936">
        <ele>301.90205055348</ele>
        <time>2017-06-16T15:38:47Z</time>
      </trkpt>
      <trkpt lat="50.27384" lon="5.13962">
        <ele>301.80620800779</ele>
        <time>2017-06-16T15:38:51Z</time>
      </trkpt>
      <trkpt lat="50.27371" lon="5.13988">
        <ele>302.69191563903</ele>
        <time>2017-06-16T15:38:55Z</time>
      </trkpt>
      <trkpt lat="50.2736" lon="5.14012">
        <ele>304.64922878831</ele>
        <time>2017-06-16T15:38:59Z</time>
      </trkpt>
      <trkpt lat="50.27348" lon="5.14044">
        <ele>305.3921691484</ele>
        <time>2017-06-16T15:39:04Z</time>
      </trkpt>
      <trkpt lat="50.2734" lon="5.14068">
        <ele>305.40106364213</ele>
        <time>2017-06-16T15:39:08Z</time>
      </trkpt>
      <trkpt lat="50.27331" lon="5.14089">
        <ele>306.46248680012</ele>
        <time>2017-06-16T15:39:12Z</time>
      </trkpt>
      <trkpt lat="50.27322" lon="5.14108">
        <ele>308.09409499608</ele>
        <time>2017-06-16T15:39:16Z</time>
      </trkpt>
      <trkpt lat="50.27311" lon="5.14132">
        <ele>310.30492745876</ele>
        <time>2017-06-16T15:39:21Z</time>
      </trkpt>
      <trkpt lat="50.27302" lon="5.14147">
        <ele>311.68557114495</ele>
        <time>2017-06-16T15:39:25Z</time>
      </trkpt>
      <trkpt lat="50.2729" lon="5.14167">
        <ele>313.71834980707</ele>
        <time>2017-06-16T15:39:30Z</time>
      </trkpt>
      <trkpt lat="50.27281" lon="5.14188">
        <ele>317.15016881512</ele>
        <time>2017-06-16T15:39:34Z</time>
      </trkpt>
      <trkpt lat="50.27273" lon="5.1421">
        <ele>318.71126178898</ele>
        <time>2017-06-16T15:39:38Z</time>
      </trkpt>
      <trkpt lat="50.27264" lon="5.14234">
        <ele>319.35961063792</ele>
        <time>2017-06-16T15:39:42Z</time>
      </trkpt>
      <trkpt lat="50.27255" lon="5.14256">
        <ele>319.57040987145</ele>
        <time>2017-06-16T15:39:46Z</time>
      </trkpt>
      <trkpt lat="50.27246" lon="5.14277">
        <ele>319.61656503521</ele>
        <time>2017-06-16T15:39:51Z</time>
      </trkpt>
      <trkpt lat="50.27246" lon="5.14298">
        <ele>320.95385793637</ele>
        <time>2017-06-16T15:39:55Z</time>
      </trkpt>
      <trkpt lat="50.27255" lon="5.14327">
        <ele>321.48350412634</ele>
        <time>2017-06-16T15:39:59Z</time>
      </trkpt>
      <trkpt lat="50.27265" lon="5.14369">
        <ele>321.36670703925</ele>
        <time>2017-06-16T15:40:04Z</time>
      </trkpt>
      <trkpt lat="50.27272" lon="5.14406">
        <ele>321.50986717278</ele>
        <time>2017-06-16T15:40:08Z</time>
      </trkpt>
      <trkpt lat="50.27279" lon="5.14451">
        <ele>323.49363156439</ele>
        <time>2017-06-16T15:40:13Z</time>
      </trkpt>
      <trkpt lat="50.27284" lon="5.14486">
        <ele>324.17350918938</ele>
        <time>2017-06-16T15:40:17Z</time>
      </trkpt>
      <trkpt lat="50.2728" lon="5.14517">
        <ele>324.49324235376</ele>
        <time>2017-06-16T15:40:21Z</time>
      </trkpt>
      <trkpt lat="50.27251" lon="5.14547">
        <ele>324.90124344457</ele>
        <time>2017-06-16T15:40:26Z</time>
      </trkpt>
      <trkpt lat="50.27223" lon="5.14576">
        <ele>324.65473575944</ele>
        <time>2017-06-16T15:40:30Z</time>
      </trkpt>
      <trkpt lat="50.27182" lon="5.14617">
        <ele>324.08267353992</ele>
        <time>2017-06-16T15:40:35Z</time>
      </trkpt>
      <trkpt lat="50.27146" lon="5.14651">
        <ele>323.15087774842</ele>
        <time>2017-06-16T15:40:39Z</time>
      </trkpt>
      <trkpt lat="50.27111" lon="5.14683">
        <ele>322.46529947441</ele>
        <time>2017-06-16T15:40:43Z</time>
      </trkpt>
      <trkpt lat="50.27084" lon="5.14704">
        <ele>322.66153825204</ele>
        <time>2017-06-16T15:40:47Z</time>
      </trkpt>
      <trkpt lat="50.27062" lon="5.14719">
        <ele>323.95876796237</ele>
        <time>2017-06-16T15:40:51Z</time>
      </trkpt>
      <trkpt lat="50.27043" lon="5.14732">
        <ele>325.59202607642</ele>
        <time>2017-06-16T15:40:55Z</time>
      </trkpt>
      <trkpt lat="50.27022" lon="5.14745">
        <ele>320.63720736418</ele>
        <time>2017-06-16T15:41:00Z</time>
      </trkpt>
      <trkpt lat="50.27004" lon="5.14758">
        <ele>319.67528392033</ele>
        <time>2017-06-16T15:41:04Z</time>
      </trkpt>
      <trkpt lat="50.26987" lon="5.14771">
        <ele>320.9814223694</ele>
        <time>2017-06-16T15:41:08Z</time>
      </trkpt>
      <trkpt lat="50.26968" lon="5.14783">
        <ele>320.8293441967</ele>
        <time>2017-06-16T15:41:12Z</time>
      </trkpt>
      <trkpt lat="50.26949" lon="5.14796">
        <ele>320.33929252128</ele>
        <time>2017-06-16T15:41:16Z</time>
      </trkpt>
      <trkpt lat="50.26927" lon="5.14811">
        <ele>319.60869511893</ele>
        <time>2017-06-16T15:41:21Z</time>
      </trkpt>
      <trkpt lat="50.26906" lon="5.14822">
        <ele>318.69874708896</ele>
        <time>2017-06-16T15:41:25Z</time>
      </trkpt>
      <trkpt lat="50.26884" lon="5.14825">
        <ele>318.23299649004</ele>
        <time>2017-06-16T15:41:29Z</time>
      </trkpt>
      <trkpt lat="50.26872" lon="5.148">
        <ele>320.55404748372</ele>
        <time>2017-06-16T15:41:33Z</time>
      </trkpt>
      <trkpt lat="50.26859" lon="5.14765">
        <ele>324.46734255783</ele>
        <time>2017-06-16T15:41:37Z</time>
      </trkpt>
      <trkpt lat="50.26846" lon="5.14729">
        <ele>326.18377588944</ele>
        <time>2017-06-16T15:41:41Z</time>
      </trkpt>
      <trkpt lat="50.26829" lon="5.14683">
        <ele>326.47526713116</ele>
        <time>2017-06-16T15:41:46Z</time>
      </trkpt>
      <trkpt lat="50.26817" lon="5.14649">
        <ele>327.04044319521</ele>
        <time>2017-06-16T15:41:50Z</time>
      </trkpt>
      <trkpt lat="50.26805" lon="5.14615">
        <ele>327.5268057041</ele>
        <time>2017-06-16T15:41:54Z</time>
      </trkpt>
      <trkpt lat="50.26792" lon="5.14581">
        <ele>327.63680145275</ele>
        <time>2017-06-16T15:41:58Z</time>
      </trkpt>
      <trkpt lat="50.2678" lon="5.14548">
        <ele>328.48517130343</ele>
        <time>2017-06-16T15:42:02Z</time>
      </trkpt>
      <trkpt lat="50.26766" lon="5.14509">
        <ele>329.44741844786</ele>
        <time>2017-06-16T15:42:07Z</time>
      </trkpt>
      <trkpt lat="50.26749" lon="5.14469">
        <ele>330.57827366887</ele>
        <time>2017-06-16T15:42:12Z</time>
      </trkpt>
      <trkpt lat="50.26735" lon="5.14433">
        <ele>330.63979073107</ele>
        <time>2017-06-16T15:42:16Z</time>
      </trkpt>
      <trkpt lat="50.2672" lon="5.14397">
        <ele>329.98145095081</ele>
        <time>2017-06-16T15:42:20Z</time>
      </trkpt>
      <trkpt lat="50.26704" lon="5.14357">
        <ele>328.97982662045</ele>
        <time>2017-06-16T15:42:25Z</time>
      </trkpt>
      <trkpt lat="50.26692" lon="5.14324">
        <ele>328.65378582413</ele>
        <time>2017-06-16T15:42:29Z</time>
      </trkpt>
      <trkpt lat="50.26677" lon="5.14287">
        <ele>325.81284415779</ele>
        <time>2017-06-16T15:42:34Z</time>
      </trkpt>
      <trkpt lat="50.26663" lon="5.14256">
        <ele>324.5677266625</ele>
        <time>2017-06-16T15:42:38Z</time>
      </trkpt>
      <trkpt lat="50.2665" lon="5.14229">
        <ele>323.61708291597</ele>
        <time>2017-06-16T15:42:42Z</time>
      </trkpt>
      <trkpt lat="50.26639" lon="5.14202">
        <ele>323.17745363241</ele>
        <time>2017-06-16T15:42:46Z</time>
      </trkpt>
      <trkpt lat="50.26628" lon="5.14177">
        <ele>323.06596187029</ele>
        <time>2017-06-16T15:42:50Z</time>
      </trkpt>
      <trkpt lat="50.26617" lon="5.14152">
        <ele>322.6661269617</ele>
        <time>2017-06-16T15:42:54Z</time>
      </trkpt>
      <trkpt lat="50.26604" lon="5.14119">
        <ele>322.1807142233</ele>
        <time>2017-06-16T15:42:59Z</time>
      </trkpt>
      <trkpt lat="50.26591" lon="5.14088">
        <ele>321.28669442023</ele>
        <time>2017-06-16T15:43:03Z</time>
      </trkpt>
      <trkpt lat="50.26581" lon="5.1406">
        <ele>320.8373921043</ele>
        <time>2017-06-16T15:43:07Z</time>
      </trkpt>
      <trkpt lat="50.26568" lon="5.14033">
        <ele>319.95012645163</ele>
        <time>2017-06-16T15:43:11Z</time>
      </trkpt>
      <trkpt lat="50.26553" lon="5.14">
        <ele>318.93877873747</ele>
        <time>2017-06-16T15:43:15Z</time>
      </trkpt>
      <trkpt lat="50.26538" lon="5.13966">
        <ele>318.0642477533</ele>
        <time>2017-06-16T15:43:19Z</time>
      </trkpt>
      <trkpt lat="50.26523" lon="5.13932">
        <ele>316.98522288038</ele>
        <time>2017-06-16T15:43:23Z</time>
      </trkpt>
      <trkpt lat="50.26509" lon="5.13899">
        <ele>316.8219544025</ele>
        <time>2017-06-16T15:43:27Z</time>
      </trkpt>
      <trkpt lat="50.26494" lon="5.13862">
        <ele>316.15779103204</ele>
        <time>2017-06-16T15:43:31Z</time>
      </trkpt>
      <trkpt lat="50.26478" lon="5.13825">
        <ele>315.49818052377</ele>
        <time>2017-06-16T15:43:35Z</time>
      </trkpt>
      <trkpt lat="50.26458" lon="5.13779">
        <ele>314.65413512082</ele>
        <time>2017-06-16T15:43:40Z</time>
      </trkpt>
      <trkpt lat="50.26443" lon="5.13743">
        <ele>313.49308148423</ele>
        <time>2017-06-16T15:43:44Z</time>
      </trkpt>
      <trkpt lat="50.26428" lon="5.13708">
        <ele>312.1427165856</ele>
        <time>2017-06-16T15:43:48Z</time>
      </trkpt>
      <trkpt lat="50.26409" lon="5.13664">
        <ele>310.91056782422</ele>
        <time>2017-06-16T15:43:53Z</time>
      </trkpt>
      <trkpt lat="50.2639" lon="5.1362">
        <ele>308.55229810236</ele>
        <time>2017-06-16T15:43:58Z</time>
      </trkpt>
      <trkpt lat="50.26373" lon="5.13581">
        <ele>307.34598162532</ele>
        <time>2017-06-16T15:44:02Z</time>
      </trkpt>
      <trkpt lat="50.26351" lon="5.1353">
        <ele>306.64513065048</ele>
        <time>2017-06-16T15:44:07Z</time>
      </trkpt>
      <trkpt lat="50.26331" lon="5.13494">
        <ele>305.21068521812</ele>
        <time>2017-06-16T15:44:11Z</time>
      </trkpt>
      <trkpt lat="50.26304" lon="5.13457">
        <ele>302.84223058876</ele>
        <time>2017-06-16T15:44:16Z</time>
      </trkpt>
      <trkpt lat="50.26276" lon="5.13417">
        <ele>301.35100312348</ele>
        <time>2017-06-16T15:44:21Z</time>
      </trkpt>
      <trkpt lat="50.26253" lon="5.13386">
        <ele>300.40083655634</ele>
        <time>2017-06-16T15:44:25Z</time>
      </trkpt>
      <trkpt lat="50.26225" lon="5.13348">
        <ele>299.35501978222</ele>
        <time>2017-06-16T15:44:30Z</time>
      </trkpt>
      <trkpt lat="50.26198" lon="5.13313">
        <ele>299.45080519959</ele>
        <time>2017-06-16T15:44:35Z</time>
      </trkpt>
      <trkpt lat="50.26176" lon="5.13282">
        <ele>296.64836949763</ele>
        <time>2017-06-16T15:44:39Z</time>
      </trkpt>
      <trkpt lat="50.26155" lon="5.13254">
        <ele>293.4520141743</ele>
        <time>2017-06-16T15:44:43Z</time>
      </trkpt>
      <trkpt lat="50.2614" lon="5.13223">
        <ele>293.69957435772</ele>
        <time>2017-06-16T15:44:47Z</time>
      </trkpt>
      <trkpt lat="50.26129" lon="5.13177">
        <ele>295.13425369662</ele>
        <time>2017-06-16T15:44:52Z</time>
      </trkpt>
      <trkpt lat="50.26116" lon="5.13154">
        <ele>293.41671089854</ele>
        <time>2017-06-16T15:44:56Z</time>
      </trkpt>
      <trkpt lat="50.261" lon="5.13166">
        <ele>289.39461961188</ele>
        <time>2017-06-16T15:45:01Z</time>
      </trkpt>
      <trkpt lat="50.2609" lon="5.13195">
        <ele>288.84097466256</ele>
        <time>2017-06-16T15:45:05Z</time>
      </trkpt>
      <trkpt lat="50.26088" lon="5.13229">
        <ele>287.18463965971</ele>
        <time>2017-06-16T15:45:09Z</time>
      </trkpt>
      <trkpt lat="50.26082" lon="5.13277">
        <ele>282.86534885966</ele>
        <time>2017-06-16T15:45:14Z</time>
      </trkpt>
      <trkpt lat="50.26065" lon="5.13318">
        <ele>277.41039837077</ele>
        <time>2017-06-16T15:45:18Z</time>
      </trkpt>
      <trkpt lat="50.26051" lon="5.13371">
        <ele>273.74230032516</ele>
        <time>2017-06-16T15:45:23Z</time>
      </trkpt>
      <trkpt lat="50.26043" lon="5.13417">
        <ele>272.74764898431</ele>
        <time>2017-06-16T15:45:27Z</time>
      </trkpt>
      <trkpt lat="50.26036" lon="5.13462">
        <ele>271.74892975586</ele>
        <time>2017-06-16T15:45:31Z</time>
      </trkpt>
      <trkpt lat="50.2603" lon="5.13505">
        <ele>271.55005319219</ele>
        <time>2017-06-16T15:45:35Z</time>
      </trkpt>
      <trkpt lat="50.26027" lon="5.13552">
        <ele>272.31079849446</ele>
        <time>2017-06-16T15:45:40Z</time>
      </trkpt>
      <trkpt lat="50.26016" lon="5.13575">
        <ele>271.70618802942</ele>
        <time>2017-06-16T15:45:44Z</time>
      </trkpt>
      <trkpt lat="50.25996" lon="5.1358">
        <ele>270.17077150506</ele>
        <time>2017-06-16T15:45:48Z</time>
      </trkpt>
      <trkpt lat="50.25978" lon="5.136">
        <ele>269.83361316891</ele>
        <time>2017-06-16T15:45:52Z</time>
      </trkpt>
      <trkpt lat="50.25959" lon="5.13628">
        <ele>273.49063953651</ele>
        <time>2017-06-16T15:45:57Z</time>
      </trkpt>
      <trkpt lat="50.2594" lon="5.13653">
        <ele>275.55724708455</ele>
        <time>2017-06-16T15:46:01Z</time>
      </trkpt>
      <trkpt lat="50.25919" lon="5.13669">
        <ele>276.59922419519</ele>
        <time>2017-06-16T15:46:05Z</time>
      </trkpt>
      <trkpt lat="50.25894" lon="5.13676">
        <ele>276.28691236752</ele>
        <time>2017-06-16T15:46:09Z</time>
      </trkpt>
      <trkpt lat="50.2587" lon="5.13675">
        <ele>275.92865594512</ele>
        <time>2017-06-16T15:46:13Z</time>
      </trkpt>
      <trkpt lat="50.2584" lon="5.13673">
        <ele>273.9755936151</ele>
        <time>2017-06-16T15:46:18Z</time>
      </trkpt>
      <trkpt lat="50.25815" lon="5.13673">
        <ele>273.60927662579</ele>
        <time>2017-06-16T15:46:22Z</time>
      </trkpt>
      <trkpt lat="50.25789" lon="5.13662">
        <ele>274.9972658029</ele>
        <time>2017-06-16T15:46:27Z</time>
      </trkpt>
      <trkpt lat="50.25789" lon="5.13646">
        <ele>275.19889728877</ele>
        <time>2017-06-16T15:46:31Z</time>
      </trkpt>
      <trkpt lat="50.25805" lon="5.13628">
        <ele>275.34924448028</ele>
        <time>2017-06-16T15:46:35Z</time>
      </trkpt>
      <trkpt lat="50.25825" lon="5.13609">
        <ele>276.73125504056</ele>
        <time>2017-06-16T15:46:39Z</time>
      </trkpt>
      <trkpt lat="50.25854" lon="5.1358">
        <ele>277.3935291125</ele>
        <time>2017-06-16T15:46:44Z</time>
      </trkpt>
      <trkpt lat="50.25872" lon="5.13555">
        <ele>278.38003601591</ele>
        <time>2017-06-16T15:46:48Z</time>
      </trkpt>
      <trkpt lat="50.25888" lon="5.13522">
        <ele>278.91805599976</ele>
        <time>2017-06-16T15:46:52Z</time>
      </trkpt>
      <trkpt lat="50.25902" lon="5.13474">
        <ele>279.43505115655</ele>
        <time>2017-06-16T15:46:57Z</time>
      </trkpt>
      <trkpt lat="50.25914" lon="5.13423">
        <ele>279.31837823626</ele>
        <time>2017-06-16T15:47:02Z</time>
      </trkpt>
      <trkpt lat="50.25927" lon="5.13376">
        <ele>278.60180875508</ele>
        <time>2017-06-16T15:47:07Z</time>
      </trkpt>
      <trkpt lat="50.25938" lon="5.13336">
        <ele>278.42092627673</ele>
        <time>2017-06-16T15:47:11Z</time>
      </trkpt>
      <trkpt lat="50.2595" lon="5.13286">
        <ele>277.98305273777</ele>
        <time>2017-06-16T15:47:16Z</time>
      </trkpt>
      <trkpt lat="50.25955" lon="5.13242">
        <ele>277.32573672262</ele>
        <time>2017-06-16T15:47:20Z</time>
      </trkpt>
      <trkpt lat="50.25958" lon="5.13188">
        <ele>275.78729848276</ele>
        <time>2017-06-16T15:47:25Z</time>
      </trkpt>
      <trkpt lat="50.2596" lon="5.13145">
        <ele>275.52863764198</ele>
        <time>2017-06-16T15:47:29Z</time>
      </trkpt>
      <trkpt lat="50.25962" lon="5.1309">
        <ele>273.94525879895</ele>
        <time>2017-06-16T15:47:34Z</time>
      </trkpt>
      <trkpt lat="50.25964" lon="5.13047">
        <ele>272.5164943946</ele>
        <time>2017-06-16T15:47:38Z</time>
      </trkpt>
      <trkpt lat="50.25967" lon="5.12994">
        <ele>271.56071551092</ele>
        <time>2017-06-16T15:47:43Z</time>
      </trkpt>
      <trkpt lat="50.2597" lon="5.12952">
        <ele>271.40433342809</ele>
        <time>2017-06-16T15:47:47Z</time>
      </trkpt>
      <trkpt lat="50.25973" lon="5.12901">
        <ele>271.26100948193</ele>
        <time>2017-06-16T15:47:52Z</time>
      </trkpt>
      <trkpt lat="50.2598" lon="5.12859">
        <ele>271.02451287636</ele>
        <time>2017-06-16T15:47:56Z</time>
      </trkpt>
      <trkpt lat="50.25996" lon="5.12826">
        <ele>271.90277370564</ele>
        <time>2017-06-16T15:48:00Z</time>
      </trkpt>
      <trkpt lat="50.26021" lon="5.12791">
        <ele>271.71784879502</ele>
        <time>2017-06-16T15:48:05Z</time>
      </trkpt>
      <trkpt lat="50.26042" lon="5.12765">
        <ele>271.86929886647</ele>
        <time>2017-06-16T15:48:09Z</time>
      </trkpt>
      <trkpt lat="50.26063" lon="5.12741">
        <ele>272.21377505044</ele>
        <time>2017-06-16T15:48:13Z</time>
      </trkpt>
      <trkpt lat="50.26086" lon="5.1271">
        <ele>271.72042867151</ele>
        <time>2017-06-16T15:48:18Z</time>
      </trkpt>
      <trkpt lat="50.26104" lon="5.12668">
        <ele>272.33040400884</ele>
        <time>2017-06-16T15:48:23Z</time>
      </trkpt>
      <trkpt lat="50.26112" lon="5.12632">
        <ele>270.98200458854</ele>
        <time>2017-06-16T15:48:27Z</time>
      </trkpt>
      <trkpt lat="50.26097" lon="5.12613">
        <ele>270.80049227329</ele>
        <time>2017-06-16T15:48:31Z</time>
      </trkpt>
      <trkpt lat="50.26076" lon="5.12593">
        <ele>271.2183078956</ele>
        <time>2017-06-16T15:48:36Z</time>
      </trkpt>
      <trkpt lat="50.2605" lon="5.12571">
        <ele>271.64367832323</ele>
        <time>2017-06-16T15:48:41Z</time>
      </trkpt>
      <trkpt lat="50.26028" lon="5.1256">
        <ele>272.11214218644</ele>
        <time>2017-06-16T15:48:45Z</time>
      </trkpt>
      <trkpt lat="50.26002" lon="5.12545">
        <ele>274.49229909711</ele>
        <time>2017-06-16T15:48:50Z</time>
      </trkpt>
      <trkpt lat="50.25974" lon="5.1253">
        <ele>277.55537621063</ele>
        <time>2017-06-16T15:48:55Z</time>
      </trkpt>
      <trkpt lat="50.25963" lon="5.12524">
        <ele>277.67959156572</ele>
        <time>2017-06-16T15:48:59Z</time>
      </trkpt>
      <trkpt lat="50.25955" lon="5.1252">
        <ele>278.08809292684</ele>
        <time>2017-06-16T15:49:06Z</time>
      </trkpt>
      <trkpt lat="50.2594" lon="5.12511">
        <ele>279.48054453947</ele>
        <time>2017-06-16T15:49:10Z</time>
      </trkpt>
      <trkpt lat="50.25916" lon="5.12497">
        <ele>279.66515192535</ele>
        <time>2017-06-16T15:49:15Z</time>
      </trkpt>
      <trkpt lat="50.25888" lon="5.12477">
        <ele>279.94629495906</ele>
        <time>2017-06-16T15:49:20Z</time>
      </trkpt>
      <trkpt lat="50.25868" lon="5.12458">
        <ele>279.86374928695</ele>
        <time>2017-06-16T15:49:24Z</time>
      </trkpt>
      <trkpt lat="50.25849" lon="5.12437">
        <ele>279.85376999343</ele>
        <time>2017-06-16T15:49:28Z</time>
      </trkpt>
      <trkpt lat="50.25824" lon="5.12407">
        <ele>280.46480519935</ele>
        <time>2017-06-16T15:49:33Z</time>
      </trkpt>
      <trkpt lat="50.25805" lon="5.12385">
        <ele>280.86061981865</ele>
        <time>2017-06-16T15:49:37Z</time>
      </trkpt>
      <trkpt lat="50.25789" lon="5.12368">
        <ele>279.84466023508</ele>
        <time>2017-06-16T15:49:41Z</time>
      </trkpt>
      <trkpt lat="50.25769" lon="5.12349">
        <ele>275.7632491083</ele>
        <time>2017-06-16T15:49:45Z</time>
      </trkpt>
      <trkpt lat="50.25747" lon="5.12335">
        <ele>275.43832241903</ele>
        <time>2017-06-16T15:49:49Z</time>
      </trkpt>
      <trkpt lat="50.25714" lon="5.1233">
        <ele>278.99300542625</ele>
        <time>2017-06-16T15:49:54Z</time>
      </trkpt>
      <trkpt lat="50.25689" lon="5.12331">
        <ele>278.72285810035</ele>
        <time>2017-06-16T15:49:58Z</time>
      </trkpt>
      <trkpt lat="50.25666" lon="5.12335">
        <ele>278.29577184695</ele>
        <time>2017-06-16T15:50:02Z</time>
      </trkpt>
      <trkpt lat="50.25642" lon="5.12336">
        <ele>278.68264412167</ele>
        <time>2017-06-16T15:50:06Z</time>
      </trkpt>
      <trkpt lat="50.25621" lon="5.12338">
        <ele>280.00462756461</ele>
        <time>2017-06-16T15:50:10Z</time>
      </trkpt>
      <trkpt lat="50.256" lon="5.1234">
        <ele>281.5025656039</ele>
        <time>2017-06-16T15:50:14Z</time>
      </trkpt>
      <trkpt lat="50.25579" lon="5.12341">
        <ele>282.61399368994</ele>
        <time>2017-06-16T15:50:18Z</time>
      </trkpt>
      <trkpt lat="50.25557" lon="5.12342">
        <ele>283.37382189855</ele>
        <time>2017-06-16T15:50:22Z</time>
      </trkpt>
      <trkpt lat="50.25528" lon="5.12346">
        <ele>283.62141330131</ele>
        <time>2017-06-16T15:50:27Z</time>
      </trkpt>
      <trkpt lat="50.25507" lon="5.1235">
        <ele>283.37865070358</ele>
        <time>2017-06-16T15:50:31Z</time>
      </trkpt>
      <trkpt lat="50.25488" lon="5.12349">
        <ele>285.16094838578</ele>
        <time>2017-06-16T15:50:35Z</time>
      </trkpt>
      <trkpt lat="50.2546" lon="5.12341">
        <ele>287.98927301266</ele>
        <time>2017-06-16T15:50:40Z</time>
      </trkpt>
      <trkpt lat="50.25438" lon="5.12332">
        <ele>289.60916035471</ele>
        <time>2017-06-16T15:50:44Z</time>
      </trkpt>
      <trkpt lat="50.25412" lon="5.12324">
        <ele>291.91260396287</ele>
        <time>2017-06-16T15:50:49Z</time>
      </trkpt>
      <trkpt lat="50.25391" lon="5.12317">
        <ele>293.4624177909</ele>
        <time>2017-06-16T15:50:53Z</time>
      </trkpt>
      <trkpt lat="50.2537" lon="5.1231">
        <ele>294.62178391215</ele>
        <time>2017-06-16T15:50:57Z</time>
      </trkpt>
      <trkpt lat="50.25345" lon="5.12301">
        <ele>295.58211047796</ele>
        <time>2017-06-16T15:51:02Z</time>
      </trkpt>
      <trkpt lat="50.25318" lon="5.12294">
        <ele>296.31068684786</ele>
        <time>2017-06-16T15:51:07Z</time>
      </trkpt>
      <trkpt lat="50.25295" lon="5.12294">
        <ele>296.54350886825</ele>
        <time>2017-06-16T15:51:11Z</time>
      </trkpt>
      <trkpt lat="50.25266" lon="5.12301">
        <ele>296.71766245834</ele>
        <time>2017-06-16T15:51:16Z</time>
      </trkpt>
      <trkpt lat="50.25244" lon="5.12307">
        <ele>297.40668195735</ele>
        <time>2017-06-16T15:51:20Z</time>
      </trkpt>
      <trkpt lat="50.25219" lon="5.12314">
        <ele>298.65235376222</ele>
        <time>2017-06-16T15:51:25Z</time>
      </trkpt>
      <trkpt lat="50.25199" lon="5.12319">
        <ele>300.40082782619</ele>
        <time>2017-06-16T15:51:29Z</time>
      </trkpt>
      <trkpt lat="50.25176" lon="5.12324">
        <ele>302.17532997381</ele>
        <time>2017-06-16T15:51:34Z</time>
      </trkpt>
      <trkpt lat="50.25157" lon="5.12328">
        <ele>303.58730454986</ele>
        <time>2017-06-16T15:51:38Z</time>
      </trkpt>
      <trkpt lat="50.25134" lon="5.12327">
        <ele>305.54881213992</ele>
        <time>2017-06-16T15:51:43Z</time>
      </trkpt>
      <trkpt lat="50.25116" lon="5.1232">
        <ele>306.22950725167</ele>
        <time>2017-06-16T15:51:47Z</time>
      </trkpt>
      <trkpt lat="50.25098" lon="5.12299">
        <ele>309.55850662295</ele>
        <time>2017-06-16T15:51:52Z</time>
      </trkpt>
      <trkpt lat="50.25084" lon="5.12277">
        <ele>312.68946228325</ele>
        <time>2017-06-16T15:51:56Z</time>
      </trkpt>
      <trkpt lat="50.25067" lon="5.1225">
        <ele>314.6988466281</ele>
        <time>2017-06-16T15:52:01Z</time>
      </trkpt>
      <trkpt lat="50.25054" lon="5.12228">
        <ele>315.81286223229</ele>
        <time>2017-06-16T15:52:05Z</time>
      </trkpt>
      <trkpt lat="50.25039" lon="5.12214">
        <ele>318.48715855616</ele>
        <time>2017-06-16T15:52:09Z</time>
      </trkpt>
      <trkpt lat="50.25021" lon="5.12221">
        <ele>317.92455115446</ele>
        <time>2017-06-16T15:52:13Z</time>
      </trkpt>
      <trkpt lat="50.25001" lon="5.1223">
        <ele>319.88470593148</ele>
        <time>2017-06-16T15:52:18Z</time>
      </trkpt>
      <trkpt lat="50.24984" lon="5.12237">
        <ele>322.53538080696</ele>
        <time>2017-06-16T15:52:22Z</time>
      </trkpt>
      <trkpt lat="50.24961" lon="5.12243">
        <ele>325.05492537771</ele>
        <time>2017-06-16T15:52:27Z</time>
      </trkpt>
      <trkpt lat="50.24939" lon="5.12246">
        <ele>323.1576673178</ele>
        <time>2017-06-16T15:52:32Z</time>
      </trkpt>
      <trkpt lat="50.24915" lon="5.12244">
        <ele>321.49239701217</ele>
        <time>2017-06-16T15:52:37Z</time>
      </trkpt>
      <trkpt lat="50.24891" lon="5.12236">
        <ele>321.84669644743</ele>
        <time>2017-06-16T15:52:42Z</time>
      </trkpt>
      <trkpt lat="50.24872" lon="5.12229">
        <ele>322.56430298591</ele>
        <time>2017-06-16T15:52:46Z</time>
      </trkpt>
      <trkpt lat="50.24852" lon="5.12221">
        <ele>323.14566297756</ele>
        <time>2017-06-16T15:52:50Z</time>
      </trkpt>
      <trkpt lat="50.24832" lon="5.12214">
        <ele>324.36151186099</ele>
        <time>2017-06-16T15:52:54Z</time>
      </trkpt>
      <trkpt lat="50.24807" lon="5.12204">
        <ele>325.33414957387</ele>
        <time>2017-06-16T15:52:59Z</time>
      </trkpt>
      <trkpt lat="50.24786" lon="5.12196">
        <ele>325.94573455513</ele>
        <time>2017-06-16T15:53:03Z</time>
      </trkpt>
      <trkpt lat="50.24765" lon="5.12188">
        <ele>326.31069442217</ele>
        <time>2017-06-16T15:53:07Z</time>
      </trkpt>
      <trkpt lat="50.24745" lon="5.12181">
        <ele>326.99549639101</ele>
        <time>2017-06-16T15:53:11Z</time>
      </trkpt>
      <trkpt lat="50.24719" lon="5.12171">
        <ele>327.66102521254</ele>
        <time>2017-06-16T15:53:16Z</time>
      </trkpt>
      <trkpt lat="50.24698" lon="5.12161">
        <ele>328.03876036588</ele>
        <time>2017-06-16T15:53:20Z</time>
      </trkpt>
      <trkpt lat="50.24678" lon="5.12146">
        <ele>328.28119509893</ele>
        <time>2017-06-16T15:53:24Z</time>
      </trkpt>
      <trkpt lat="50.24654" lon="5.12124">
        <ele>328.82756873836</ele>
        <time>2017-06-16T15:53:29Z</time>
      </trkpt>
      <trkpt lat="50.24635" lon="5.12093">
        <ele>329.11077509131</ele>
        <time>2017-06-16T15:53:33Z</time>
      </trkpt>
      <trkpt lat="50.24619" lon="5.12053">
        <ele>329.51777169483</ele>
        <time>2017-06-16T15:53:38Z</time>
      </trkpt>
      <trkpt lat="50.24608" lon="5.12022">
        <ele>329.78578601277</ele>
        <time>2017-06-16T15:53:42Z</time>
      </trkpt>
      <trkpt lat="50.24597" lon="5.11992">
        <ele>329.96257556997</ele>
        <time>2017-06-16T15:53:46Z</time>
      </trkpt>
      <trkpt lat="50.24587" lon="5.11958">
        <ele>330.21127876606</ele>
        <time>2017-06-16T15:53:50Z</time>
      </trkpt>
      <trkpt lat="50.24577" lon="5.11923">
        <ele>330.17518747078</ele>
        <time>2017-06-16T15:53:54Z</time>
      </trkpt>
      <trkpt lat="50.2457" lon="5.1189">
        <ele>330.82613249935</ele>
        <time>2017-06-16T15:53:58Z</time>
      </trkpt>
      <trkpt lat="50.24558" lon="5.11847">
        <ele>331.19452901766</ele>
        <time>2017-06-16T15:54:03Z</time>
      </trkpt>
      <trkpt lat="50.24545" lon="5.11814">
        <ele>331.1042789812</ele>
        <time>2017-06-16T15:54:07Z</time>
      </trkpt>
      <trkpt lat="50.24529" lon="5.11774">
        <ele>331.36174899612</ele>
        <time>2017-06-16T15:54:12Z</time>
      </trkpt>
      <trkpt lat="50.24515" lon="5.11743">
        <ele>331.73591090901</ele>
        <time>2017-06-16T15:54:16Z</time>
      </trkpt>
      <trkpt lat="50.24499" lon="5.11704">
        <ele>332.28316321576</ele>
        <time>2017-06-16T15:54:21Z</time>
      </trkpt>
      <trkpt lat="50.24487" lon="5.11673">
        <ele>332.6895269899</ele>
        <time>2017-06-16T15:54:25Z</time>
      </trkpt>
      <trkpt lat="50.24471" lon="5.11634">
        <ele>333.04260726719</ele>
        <time>2017-06-16T15:54:30Z</time>
      </trkpt>
      <trkpt lat="50.24458" lon="5.11603">
        <ele>333.59591833189</ele>
        <time>2017-06-16T15:54:34Z</time>
      </trkpt>
      <trkpt lat="50.24442" lon="5.11564">
        <ele>334.26163828334</ele>
        <time>2017-06-16T15:54:39Z</time>
      </trkpt>
      <trkpt lat="50.24426" lon="5.11523">
        <ele>334.88228786614</ele>
        <time>2017-06-16T15:54:44Z</time>
      </trkpt>
      <trkpt lat="50.24415" lon="5.11491">
        <ele>335.24368085809</ele>
        <time>2017-06-16T15:54:48Z</time>
      </trkpt>
      <trkpt lat="50.24406" lon="5.11458">
        <ele>335.9740990959</ele>
        <time>2017-06-16T15:54:52Z</time>
      </trkpt>
      <trkpt lat="50.24396" lon="5.11415">
        <ele>336.9899050576</ele>
        <time>2017-06-16T15:54:57Z</time>
      </trkpt>
      <trkpt lat="50.24386" lon="5.11371">
        <ele>337.77649121714</ele>
        <time>2017-06-16T15:55:02Z</time>
      </trkpt>
      <trkpt lat="50.24378" lon="5.11337">
        <ele>338.03902261693</ele>
        <time>2017-06-16T15:55:06Z</time>
      </trkpt>
      <trkpt lat="50.24368" lon="5.11294">
        <ele>338.24941094629</ele>
        <time>2017-06-16T15:55:11Z</time>
      </trkpt>
      <trkpt lat="50.2436" lon="5.11261">
        <ele>338.58027309633</ele>
        <time>2017-06-16T15:55:15Z</time>
      </trkpt>
      <trkpt lat="50.24347" lon="5.11221">
        <ele>339.12050739881</ele>
        <time>2017-06-16T15:55:20Z</time>
      </trkpt>
      <trkpt lat="50.24338" lon="5.1119">
        <ele>339.81739072481</ele>
        <time>2017-06-16T15:55:24Z</time>
      </trkpt>
      <trkpt lat="50.24327" lon="5.11158">
        <ele>340.58395197596</ele>
        <time>2017-06-16T15:55:28Z</time>
      </trkpt>
      <trkpt lat="50.24315" lon="5.11125">
        <ele>341.18523149606</ele>
        <time>2017-06-16T15:55:32Z</time>
      </trkpt>
      <trkpt lat="50.24304" lon="5.11093">
        <ele>341.44928686826</ele>
        <time>2017-06-16T15:55:36Z</time>
      </trkpt>
      <trkpt lat="50.2429" lon="5.11054">
        <ele>343.32715282029</ele>
        <time>2017-06-16T15:55:41Z</time>
      </trkpt>
      <trkpt lat="50.24278" lon="5.11023">
        <ele>345.12704859912</ele>
        <time>2017-06-16T15:55:45Z</time>
      </trkpt>
      <trkpt lat="50.24265" lon="5.10991">
        <ele>345.6968084371</ele>
        <time>2017-06-16T15:55:49Z</time>
      </trkpt>
      <trkpt lat="50.24252" lon="5.10961">
        <ele>345.09800739793</ele>
        <time>2017-06-16T15:55:53Z</time>
      </trkpt>
      <trkpt lat="50.24234" lon="5.10922">
        <ele>344.8129351359</ele>
        <time>2017-06-16T15:55:58Z</time>
      </trkpt>
      <trkpt lat="50.2422" lon="5.10892">
        <ele>344.22157579815</ele>
        <time>2017-06-16T15:56:02Z</time>
      </trkpt>
      <trkpt lat="50.24206" lon="5.10863">
        <ele>343.73364036674</ele>
        <time>2017-06-16T15:56:06Z</time>
      </trkpt>
      <trkpt lat="50.24192" lon="5.10833">
        <ele>342.64181284572</ele>
        <time>2017-06-16T15:56:10Z</time>
      </trkpt>
      <trkpt lat="50.24175" lon="5.10795">
        <ele>341.43978741621</ele>
        <time>2017-06-16T15:56:15Z</time>
      </trkpt>
      <trkpt lat="50.2416" lon="5.10766">
        <ele>340.81499750347</ele>
        <time>2017-06-16T15:56:19Z</time>
      </trkpt>
      <trkpt lat="50.24138" lon="5.10735">
        <ele>340.28324378204</ele>
        <time>2017-06-16T15:56:24Z</time>
      </trkpt>
      <trkpt lat="50.24116" lon="5.10715">
        <ele>340.21882082249</ele>
        <time>2017-06-16T15:56:28Z</time>
      </trkpt>
      <trkpt lat="50.24089" lon="5.10696">
        <ele>339.71874488842</ele>
        <time>2017-06-16T15:56:33Z</time>
      </trkpt>
      <trkpt lat="50.24066" lon="5.10682">
        <ele>339.02433207572</ele>
        <time>2017-06-16T15:56:37Z</time>
      </trkpt>
      <trkpt lat="50.24037" lon="5.10662">
        <ele>338.01147924033</ele>
        <time>2017-06-16T15:56:42Z</time>
      </trkpt>
      <trkpt lat="50.24007" lon="5.10637">
        <ele>337.07024161911</ele>
        <time>2017-06-16T15:56:47Z</time>
      </trkpt>
      <trkpt lat="50.23987" lon="5.10612">
        <ele>336.59470974096</ele>
        <time>2017-06-16T15:56:51Z</time>
      </trkpt>
      <trkpt lat="50.23968" lon="5.10581">
        <ele>337.12442906178</ele>
        <time>2017-06-16T15:56:56Z</time>
      </trkpt>
      <trkpt lat="50.23952" lon="5.10546">
        <ele>339.45023927667</ele>
        <time>2017-06-16T15:57:01Z</time>
      </trkpt>
      <trkpt lat="50.23941" lon="5.10512">
        <ele>339.6406599289</ele>
        <time>2017-06-16T15:57:05Z</time>
      </trkpt>
      <trkpt lat="50.23927" lon="5.10476">
        <ele>339.78368357526</ele>
        <time>2017-06-16T15:57:10Z</time>
      </trkpt>
      <trkpt lat="50.23916" lon="5.10451">
        <ele>342.2435728228</ele>
        <time>2017-06-16T15:57:14Z</time>
      </trkpt>
      <trkpt lat="50.23922" lon="5.10432">
        <ele>343.80062827536</ele>
        <time>2017-06-16T15:57:19Z</time>
      </trkpt>
      <trkpt lat="50.2394" lon="5.10419">
        <ele>340.26425802618</ele>
        <time>2017-06-16T15:57:23Z</time>
      </trkpt>
      <trkpt lat="50.23968" lon="5.10398">
        <ele>333.76994144513</ele>
        <time>2017-06-16T15:57:28Z</time>
      </trkpt>
      <trkpt lat="50.23997" lon="5.10376">
        <ele>330.83300223304</ele>
        <time>2017-06-16T15:57:33Z</time>
      </trkpt>
      <trkpt lat="50.24021" lon="5.10359">
        <ele>329.99436335598</ele>
        <time>2017-06-16T15:57:37Z</time>
      </trkpt>
      <trkpt lat="50.24044" lon="5.10339">
        <ele>330.88725829576</ele>
        <time>2017-06-16T15:57:41Z</time>
      </trkpt>
      <trkpt lat="50.24071" lon="5.10308">
        <ele>332.43284997036</ele>
        <time>2017-06-16T15:57:46Z</time>
      </trkpt>
      <trkpt lat="50.24092" lon="5.10283">
        <ele>333.41934453789</ele>
        <time>2017-06-16T15:57:50Z</time>
      </trkpt>
      <trkpt lat="50.24117" lon="5.10254">
        <ele>334.80052675389</ele>
        <time>2017-06-16T15:57:55Z</time>
      </trkpt>
      <trkpt lat="50.24137" lon="5.1023">
        <ele>336.13741953078</ele>
        <time>2017-06-16T15:57:59Z</time>
      </trkpt>
      <trkpt lat="50.24161" lon="5.102">
        <ele>337.52333033179</ele>
        <time>2017-06-16T15:58:04Z</time>
      </trkpt>
      <trkpt lat="50.24187" lon="5.10171">
        <ele>339.0417158271</ele>
        <time>2017-06-16T15:58:09Z</time>
      </trkpt>
      <trkpt lat="50.24214" lon="5.10144">
        <ele>339.64028316949</ele>
        <time>2017-06-16T15:58:14Z</time>
      </trkpt>
      <trkpt lat="50.24249" lon="5.10121">
        <ele>338.59039317746</ele>
        <time>2017-06-16T15:58:19Z</time>
      </trkpt>
      <trkpt lat="50.24283" lon="5.101">
        <ele>334.15265029381</ele>
        <time>2017-06-16T15:58:23Z</time>
      </trkpt>
      <trkpt lat="50.24333" lon="5.1007">
        <ele>327.81105970949</ele>
        <time>2017-06-16T15:58:28Z</time>
      </trkpt>
      <trkpt lat="50.24377" lon="5.10043">
        <ele>322.36663177922</ele>
        <time>2017-06-16T15:58:32Z</time>
      </trkpt>
      <trkpt lat="50.2443" lon="5.1001">
        <ele>316.25975431148</ele>
        <time>2017-06-16T15:58:37Z</time>
      </trkpt>
      <trkpt lat="50.24469" lon="5.09986">
        <ele>312.95584879588</ele>
        <time>2017-06-16T15:58:41Z</time>
      </trkpt>
      <trkpt lat="50.2451" lon="5.09961">
        <ele>310.9066439229</ele>
        <time>2017-06-16T15:58:46Z</time>
      </trkpt>
      <trkpt lat="50.24544" lon="5.09941">
        <ele>309.80035505285</ele>
        <time>2017-06-16T15:58:51Z</time>
      </trkpt>
      <trkpt lat="50.24569" lon="5.09926">
        <ele>309.79786941703</ele>
        <time>2017-06-16T15:58:55Z</time>
      </trkpt>
      <trkpt lat="50.24599" lon="5.09908">
        <ele>310.80494732181</ele>
        <time>2017-06-16T15:59:00Z</time>
      </trkpt>
      <trkpt lat="50.24621" lon="5.09892">
        <ele>310.7944922465</ele>
        <time>2017-06-16T15:59:04Z</time>
      </trkpt>
      <trkpt lat="50.24649" lon="5.09869">
        <ele>311.21917383517</ele>
        <time>2017-06-16T15:59:09Z</time>
      </trkpt>
      <trkpt lat="50.24677" lon="5.09847">
        <ele>312.97499221036</ele>
        <time>2017-06-16T15:59:14Z</time>
      </trkpt>
      <trkpt lat="50.24698" lon="5.09829">
        <ele>314.15487064477</ele>
        <time>2017-06-16T15:59:18Z</time>
      </trkpt>
      <trkpt lat="50.24725" lon="5.09807">
        <ele>315.16878248788</ele>
        <time>2017-06-16T15:59:23Z</time>
      </trkpt>
      <trkpt lat="50.24751" lon="5.09781">
        <ele>315.37359575992</ele>
        <time>2017-06-16T15:59:28Z</time>
      </trkpt>
      <trkpt lat="50.24772" lon="5.09756">
        <ele>315.353231595</ele>
        <time>2017-06-16T15:59:32Z</time>
      </trkpt>
      <trkpt lat="50.24794" lon="5.09727">
        <ele>316.21341072241</ele>
        <time>2017-06-16T15:59:37Z</time>
      </trkpt>
      <trkpt lat="50.24814" lon="5.09702">
        <ele>318.94086763792</ele>
        <time>2017-06-16T15:59:41Z</time>
      </trkpt>
      <trkpt lat="50.24841" lon="5.09674">
        <ele>320.08011826351</ele>
        <time>2017-06-16T15:59:46Z</time>
      </trkpt>
      <trkpt lat="50.24864" lon="5.09653">
        <ele>319.37168160532</ele>
        <time>2017-06-16T15:59:50Z</time>
      </trkpt>
      <trkpt lat="50.24891" lon="5.09632">
        <ele>316.52828107671</ele>
        <time>2017-06-16T15:59:54Z</time>
      </trkpt>
      <trkpt lat="50.24921" lon="5.09614">
        <ele>315.01480822266</ele>
        <time>2017-06-16T15:59:58Z</time>
      </trkpt>
      <trkpt lat="50.24954" lon="5.09594">
        <ele>314.6056716308</ele>
        <time>2017-06-16T16:00:02Z</time>
      </trkpt>
      <trkpt lat="50.24995" lon="5.09569">
        <ele>314.27809752642</ele>
        <time>2017-06-16T16:00:07Z</time>
      </trkpt>
      <trkpt lat="50.25037" lon="5.09548">
        <ele>310.94556106465</ele>
        <time>2017-06-16T16:00:12Z</time>
      </trkpt>
      <trkpt lat="50.25067" lon="5.09537">
        <ele>308.25611099545</ele>
        <time>2017-06-16T16:00:16Z</time>
      </trkpt>
      <trkpt lat="50.25096" lon="5.0953">
        <ele>306.51083964756</ele>
        <time>2017-06-16T16:00:20Z</time>
      </trkpt>
      <trkpt lat="50.2513" lon="5.09522">
        <ele>304.56727170001</ele>
        <time>2017-06-16T16:00:25Z</time>
      </trkpt>
      <trkpt lat="50.25156" lon="5.09516">
        <ele>303.66074591663</ele>
        <time>2017-06-16T16:00:29Z</time>
      </trkpt>
      <trkpt lat="50.25183" lon="5.0951">
        <ele>303.26612408854</ele>
        <time>2017-06-16T16:00:33Z</time>
      </trkpt>
      <trkpt lat="50.25209" lon="5.09506">
        <ele>303.27848134172</ele>
        <time>2017-06-16T16:00:37Z</time>
      </trkpt>
      <trkpt lat="50.25242" lon="5.09507">
        <ele>303.69061985511</ele>
        <time>2017-06-16T16:00:42Z</time>
      </trkpt>
      <trkpt lat="50.25268" lon="5.0951">
        <ele>302.99756005149</ele>
        <time>2017-06-16T16:00:46Z</time>
      </trkpt>
      <trkpt lat="50.25301" lon="5.09518">
        <ele>302.5315112142</ele>
        <time>2017-06-16T16:00:51Z</time>
      </trkpt>
      <trkpt lat="50.25328" lon="5.09529">
        <ele>301.92195681022</ele>
        <time>2017-06-16T16:00:55Z</time>
      </trkpt>
      <trkpt lat="50.25365" lon="5.0955">
        <ele>301.40803797933</ele>
        <time>2017-06-16T16:01:00Z</time>
      </trkpt>
      <trkpt lat="50.25398" lon="5.09568">
        <ele>300.87355882006</ele>
        <time>2017-06-16T16:01:04Z</time>
      </trkpt>
      <trkpt lat="50.25441" lon="5.09594">
        <ele>299.45298370157</ele>
        <time>2017-06-16T16:01:09Z</time>
      </trkpt>
      <trkpt lat="50.25476" lon="5.09614">
        <ele>297.84795208095</ele>
        <time>2017-06-16T16:01:13Z</time>
      </trkpt>
      <trkpt lat="50.25513" lon="5.09634">
        <ele>296.25487189007</ele>
        <time>2017-06-16T16:01:17Z</time>
      </trkpt>
      <trkpt lat="50.2555" lon="5.09654">
        <ele>293.96348873615</ele>
        <time>2017-06-16T16:01:21Z</time>
      </trkpt>
      <trkpt lat="50.25588" lon="5.09669">
        <ele>291.41451241646</ele>
        <time>2017-06-16T16:01:25Z</time>
      </trkpt>
      <trkpt lat="50.25637" lon="5.09683">
        <ele>287.5690961565</ele>
        <time>2017-06-16T16:01:30Z</time>
      </trkpt>
      <trkpt lat="50.25682" lon="5.09696">
        <ele>284.86627628952</ele>
        <time>2017-06-16T16:01:35Z</time>
      </trkpt>
      <trkpt lat="50.2571" lon="5.09701">
        <ele>283.99064571214</ele>
        <time>2017-06-16T16:01:39Z</time>
      </trkpt>
      <trkpt lat="50.25736" lon="5.09712">
        <ele>282.62056775474</ele>
        <time>2017-06-16T16:01:44Z</time>
      </trkpt>
      <trkpt lat="50.25755" lon="5.09726">
        <ele>281.99044683636</ele>
        <time>2017-06-16T16:01:48Z</time>
      </trkpt>
      <trkpt lat="50.25777" lon="5.09737">
        <ele>281.36257848024</ele>
        <time>2017-06-16T16:01:52Z</time>
      </trkpt>
      <trkpt lat="50.25796" lon="5.09752">
        <ele>281.41028696097</ele>
        <time>2017-06-16T16:01:56Z</time>
      </trkpt>
      <trkpt lat="50.25803" lon="5.09788">
        <ele>279.90864598703</ele>
        <time>2017-06-16T16:02:01Z</time>
      </trkpt>
      <trkpt lat="50.25802" lon="5.09818">
        <ele>277.68484009179</ele>
        <time>2017-06-16T16:02:05Z</time>
      </trkpt>
      <trkpt lat="50.25801" lon="5.09844">
        <ele>276.67558459271</ele>
        <time>2017-06-16T16:02:09Z</time>
      </trkpt>
      <trkpt lat="50.25804" lon="5.09863">
        <ele>276.47441108757</ele>
        <time>2017-06-16T16:02:13Z</time>
      </trkpt>
      <trkpt lat="50.2581" lon="5.09881">
        <ele>276.14823270402</ele>
        <time>2017-06-16T16:02:18Z</time>
      </trkpt>
      <trkpt lat="50.25815" lon="5.09895">
        <ele>275.83820233858</ele>
        <time>2017-06-16T16:02:22Z</time>
      </trkpt>
      <trkpt lat="50.2582" lon="5.09905">
        <ele>275.54652174855</ele>
        <time>2017-06-16T16:02:26Z</time>
      </trkpt>
      <trkpt lat="50.25827" lon="5.09918">
        <ele>275.31519266061</ele>
        <time>2017-06-16T16:02:31Z</time>
      </trkpt>
      <trkpt lat="50.25831" lon="5.09928">
        <ele>275.26906442435</ele>
        <time>2017-06-16T16:02:35Z</time>
      </trkpt>
      <trkpt lat="50.25835" lon="5.09939">
        <ele>275.28080837403</ele>
        <time>2017-06-16T16:02:39Z</time>
      </trkpt>
      <trkpt lat="50.25831" lon="5.0993">
        <ele>276.53737788052</ele>
        <time>2017-06-16T16:02:54Z</time>
      </trkpt>
      <trkpt lat="50.25823" lon="5.09912">
        <ele>277.17783817397</ele>
        <time>2017-06-16T16:02:59Z</time>
      </trkpt>
      <trkpt lat="50.25815" lon="5.09913">
        <ele>277.32172088078</ele>
        <time>2017-06-16T16:03:05Z</time>
      </trkpt>
      <trkpt lat="50.25808" lon="5.09919">
        <ele>277.1086293422</ele>
        <time>2017-06-16T16:03:10Z</time>
      </trkpt>
      <trkpt lat="50.25804" lon="5.0993">
        <ele>276.71379047504</ele>
        <time>2017-06-16T16:03:21Z</time>
      </trkpt>
      <trkpt lat="50.25808" lon="5.09942">
        <ele>276.74597086475</ele>
        <time>2017-06-16T16:07:03Z</time>
      </trkpt>
      <trkpt lat="50.25801" lon="5.0995">
        <ele>274.23523800552</ele>
        <time>2017-06-16T16:07:26Z</time>
      </trkpt>
      <trkpt lat="50.25796" lon="5.0994">
        <ele>270.09868475277</ele>
        <time>2017-06-16T16:07:35Z</time>
      </trkpt>
      <trkpt lat="50.25799" lon="5.09928">
        <ele>268.60840654862</ele>
        <time>2017-06-16T16:07:44Z</time>
      </trkpt>
      <trkpt lat="50.25804" lon="5.09929">
        <ele>265.96527804483</ele>
        <time>2017-06-16T16:10:18Z</time>
      </trkpt>
      <trkpt lat="50.25809" lon="5.09944">
        <ele>266.40224909686</ele>
        <time>2017-06-16T16:10:23Z</time>
      </trkpt>
      <trkpt lat="50.25804" lon="5.09933">
        <ele>267.92305945004</ele>
        <time>2017-06-16T16:10:32Z</time>
      </trkpt>
      <trkpt lat="50.25801" lon="5.09915">
        <ele>268.26478963456</ele>
        <time>2017-06-16T16:10:36Z</time>
      </trkpt>
      <trkpt lat="50.25799" lon="5.09896">
        <ele>268.97482840017</ele>
        <time>2017-06-16T16:10:41Z</time>
      </trkpt>
      <trkpt lat="50.25802" lon="5.09882">
        <ele>269.83395818094</ele>
        <time>2017-06-16T16:10:46Z</time>
      </trkpt>
      <trkpt lat="50.25804" lon="5.09869">
        <ele>270.59273005007</ele>
        <time>2017-06-16T16:10:50Z</time>
      </trkpt>
      <trkpt lat="50.25801" lon="5.09841">
        <ele>274.01904541656</ele>
        <time>2017-06-16T16:10:55Z</time>
      </trkpt>
      <trkpt lat="50.25802" lon="5.09812">
        <ele>276.41384709872</ele>
        <time>2017-06-16T16:10:59Z</time>
      </trkpt>
      <trkpt lat="50.25803" lon="5.09783">
        <ele>278.26431562568</ele>
        <time>2017-06-16T16:11:03Z</time>
      </trkpt>
      <trkpt lat="50.25801" lon="5.09757">
        <ele>278.22343958245</ele>
        <time>2017-06-16T16:11:07Z</time>
      </trkpt>
      <trkpt lat="50.2582" lon="5.09735">
        <ele>277.32280709543</ele>
        <time>2017-06-16T16:11:12Z</time>
      </trkpt>
      <trkpt lat="50.25839" lon="5.09708">
        <ele>278.72275444388</ele>
        <time>2017-06-16T16:11:17Z</time>
      </trkpt>
      <trkpt lat="50.25856" lon="5.09686">
        <ele>279.20964262696</ele>
        <time>2017-06-16T16:11:21Z</time>
      </trkpt>
      <trkpt lat="50.25875" lon="5.09669">
        <ele>278.42348049966</ele>
        <time>2017-06-16T16:11:25Z</time>
      </trkpt>
      <trkpt lat="50.25905" lon="5.09656">
        <ele>276.37636346955</ele>
        <time>2017-06-16T16:11:30Z</time>
      </trkpt>
      <trkpt lat="50.25937" lon="5.09646">
        <ele>275.26840421051</ele>
        <time>2017-06-16T16:11:35Z</time>
      </trkpt>
      <trkpt lat="50.25969" lon="5.09632">
        <ele>276.01018776703</ele>
        <time>2017-06-16T16:11:40Z</time>
      </trkpt>
      <trkpt lat="50.25993" lon="5.09618">
        <ele>276.27382444345</ele>
        <time>2017-06-16T16:11:44Z</time>
      </trkpt>
      <trkpt lat="50.26023" lon="5.09602">
        <ele>276.09713066596</ele>
        <time>2017-06-16T16:11:49Z</time>
      </trkpt>
      <trkpt lat="50.26054" lon="5.09587">
        <ele>276.43127509602</ele>
        <time>2017-06-16T16:11:54Z</time>
      </trkpt>
      <trkpt lat="50.26078" lon="5.09575">
        <ele>276.56802827693</ele>
        <time>2017-06-16T16:11:58Z</time>
      </trkpt>
      <trkpt lat="50.26108" lon="5.09564">
        <ele>277.95529126563</ele>
        <time>2017-06-16T16:12:03Z</time>
      </trkpt>
      <trkpt lat="50.26133" lon="5.09558">
        <ele>278.62004534204</ele>
        <time>2017-06-16T16:12:07Z</time>
      </trkpt>
      <trkpt lat="50.26156" lon="5.0955">
        <ele>278.33992808892</ele>
        <time>2017-06-16T16:12:11Z</time>
      </trkpt>
      <trkpt lat="50.26181" lon="5.0953">
        <ele>278.90205496709</ele>
        <time>2017-06-16T16:12:16Z</time>
      </trkpt>
      <trkpt lat="50.26204" lon="5.09506">
        <ele>279.73939461925</ele>
        <time>2017-06-16T16:12:21Z</time>
      </trkpt>
      <trkpt lat="50.26219" lon="5.09472">
        <ele>280.96011794791</ele>
        <time>2017-06-16T16:12:26Z</time>
      </trkpt>
      <trkpt lat="50.26221" lon="5.09436">
        <ele>280.99732272683</ele>
        <time>2017-06-16T16:12:30Z</time>
      </trkpt>
      <trkpt lat="50.26218" lon="5.09393">
        <ele>280.14966470748</ele>
        <time>2017-06-16T16:12:35Z</time>
      </trkpt>
      <trkpt lat="50.26216" lon="5.09349">
        <ele>282.8581291892</ele>
        <time>2017-06-16T16:12:40Z</time>
      </trkpt>
      <trkpt lat="50.26227" lon="5.09316">
        <ele>283.76318576001</ele>
        <time>2017-06-16T16:12:44Z</time>
      </trkpt>
      <trkpt lat="50.26242" lon="5.09271">
        <ele>282.64733511889</ele>
        <time>2017-06-16T16:12:49Z</time>
      </trkpt>
      <trkpt lat="50.26249" lon="5.09228">
        <ele>281.0861533103</ele>
        <time>2017-06-16T16:12:53Z</time>
      </trkpt>
      <trkpt lat="50.26257" lon="5.09172">
        <ele>278.92263866172</ele>
        <time>2017-06-16T16:12:58Z</time>
      </trkpt>
      <trkpt lat="50.26269" lon="5.09121">
        <ele>276.98704392311</ele>
        <time>2017-06-16T16:13:03Z</time>
      </trkpt>
      <trkpt lat="50.26281" lon="5.09085">
        <ele>275.53738515392</ele>
        <time>2017-06-16T16:13:07Z</time>
      </trkpt>
      <trkpt lat="50.26295" lon="5.09052">
        <ele>274.73545985406</ele>
        <time>2017-06-16T16:13:11Z</time>
      </trkpt>
      <trkpt lat="50.26313" lon="5.09016">
        <ele>276.08476934457</ele>
        <time>2017-06-16T16:13:16Z</time>
      </trkpt>
      <trkpt lat="50.26333" lon="5.08982">
        <ele>278.36077308131</ele>
        <time>2017-06-16T16:13:21Z</time>
      </trkpt>
      <trkpt lat="50.26349" lon="5.08955">
        <ele>279.78233282603</ele>
        <time>2017-06-16T16:13:25Z</time>
      </trkpt>
      <trkpt lat="50.26363" lon="5.08928">
        <ele>280.60994049145</ele>
        <time>2017-06-16T16:13:29Z</time>
      </trkpt>
      <trkpt lat="50.26375" lon="5.08898">
        <ele>281.44838124029</ele>
        <time>2017-06-16T16:13:33Z</time>
      </trkpt>
      <trkpt lat="50.26385" lon="5.08865">
        <ele>282.18226348795</ele>
        <time>2017-06-16T16:13:37Z</time>
      </trkpt>
      <trkpt lat="50.26397" lon="5.08825">
        <ele>283.32523922024</ele>
        <time>2017-06-16T16:13:42Z</time>
      </trkpt>
      <trkpt lat="50.2641" lon="5.08782">
        <ele>284.26555118491</ele>
        <time>2017-06-16T16:13:47Z</time>
      </trkpt>
      <trkpt lat="50.2642" lon="5.0875">
        <ele>284.83781034635</ele>
        <time>2017-06-16T16:13:51Z</time>
      </trkpt>
      <trkpt lat="50.26432" lon="5.0871">
        <ele>285.15919488223</ele>
        <time>2017-06-16T16:13:56Z</time>
      </trkpt>
      <trkpt lat="50.26442" lon="5.08679">
        <ele>286.10313505213</ele>
        <time>2017-06-16T16:14:00Z</time>
      </trkpt>
      <trkpt lat="50.26451" lon="5.08647">
        <ele>287.15881019082</ele>
        <time>2017-06-16T16:14:04Z</time>
      </trkpt>
      <trkpt lat="50.26461" lon="5.08605">
        <ele>288.19134655218</ele>
        <time>2017-06-16T16:14:09Z</time>
      </trkpt>
      <trkpt lat="50.2647" lon="5.08565">
        <ele>289.66219484403</ele>
        <time>2017-06-16T16:14:14Z</time>
      </trkpt>
      <trkpt lat="50.26478" lon="5.08527">
        <ele>290.19242225325</ele>
        <time>2017-06-16T16:14:19Z</time>
      </trkpt>
      <trkpt lat="50.26485" lon="5.08495">
        <ele>291.17690709755</ele>
        <time>2017-06-16T16:14:23Z</time>
      </trkpt>
      <trkpt lat="50.26491" lon="5.08464">
        <ele>292.30907407246</ele>
        <time>2017-06-16T16:14:27Z</time>
      </trkpt>
      <trkpt lat="50.26498" lon="5.08432">
        <ele>293.35364869294</ele>
        <time>2017-06-16T16:14:31Z</time>
      </trkpt>
      <trkpt lat="50.26507" lon="5.08405">
        <ele>294.22732689564</ele>
        <time>2017-06-16T16:14:35Z</time>
      </trkpt>
      <trkpt lat="50.26517" lon="5.08374">
        <ele>294.58964015014</ele>
        <time>2017-06-16T16:14:39Z</time>
      </trkpt>
      <trkpt lat="50.26527" lon="5.08346">
        <ele>295.24373767949</ele>
        <time>2017-06-16T16:14:43Z</time>
      </trkpt>
      <trkpt lat="50.26538" lon="5.08312">
        <ele>295.88614836187</ele>
        <time>2017-06-16T16:14:48Z</time>
      </trkpt>
      <trkpt lat="50.26554" lon="5.08307">
        <ele>296.11234025349</ele>
        <time>2017-06-16T16:14:52Z</time>
      </trkpt>
      <trkpt lat="50.26567" lon="5.08315">
        <ele>297.69800345497</ele>
        <time>2017-06-16T16:14:56Z</time>
      </trkpt>
      <trkpt lat="50.26587" lon="5.08332">
        <ele>299.64552164195</ele>
        <time>2017-06-16T16:15:01Z</time>
      </trkpt>
      <trkpt lat="50.26604" lon="5.08342">
        <ele>301.35542936019</ele>
        <time>2017-06-16T16:15:05Z</time>
      </trkpt>
      <trkpt lat="50.26621" lon="5.08357">
        <ele>304.17489615771</ele>
        <time>2017-06-16T16:15:09Z</time>
      </trkpt>
      <trkpt lat="50.26638" lon="5.08373">
        <ele>305.84899898011</ele>
        <time>2017-06-16T16:15:13Z</time>
      </trkpt>
      <trkpt lat="50.26658" lon="5.08391">
        <ele>306.85431116997</ele>
        <time>2017-06-16T16:15:18Z</time>
      </trkpt>
      <trkpt lat="50.26675" lon="5.08408">
        <ele>308.52691842913</ele>
        <time>2017-06-16T16:15:23Z</time>
      </trkpt>
      <trkpt lat="50.26691" lon="5.0842">
        <ele>309.34430203179</ele>
        <time>2017-06-16T16:15:28Z</time>
      </trkpt>
      <trkpt lat="50.26701" lon="5.0843">
        <ele>309.60023480534</ele>
        <time>2017-06-16T16:15:32Z</time>
      </trkpt>
      <trkpt lat="50.26718" lon="5.08448">
        <ele>310.86703581321</ele>
        <time>2017-06-16T16:15:36Z</time>
      </trkpt>
      <trkpt lat="50.26739" lon="5.08469">
        <ele>310.11294780517</ele>
        <time>2017-06-16T16:15:40Z</time>
      </trkpt>
      <trkpt lat="50.26766" lon="5.08494">
        <ele>309.19527493567</ele>
        <time>2017-06-16T16:15:45Z</time>
      </trkpt>
      <trkpt lat="50.26791" lon="5.08518">
        <ele>307.78261451787</ele>
        <time>2017-06-16T16:15:50Z</time>
      </trkpt>
      <trkpt lat="50.2681" lon="5.08537">
        <ele>306.50880814412</ele>
        <time>2017-06-16T16:15:54Z</time>
      </trkpt>
      <trkpt lat="50.26834" lon="5.0856">
        <ele>305.56529961047</ele>
        <time>2017-06-16T16:15:59Z</time>
      </trkpt>
      <trkpt lat="50.2685" lon="5.08575">
        <ele>306.25750030946</ele>
        <time>2017-06-16T16:16:03Z</time>
      </trkpt>
      <trkpt lat="50.26867" lon="5.08589">
        <ele>307.00021715004</ele>
        <time>2017-06-16T16:16:07Z</time>
      </trkpt>
      <trkpt lat="50.26891" lon="5.08602">
        <ele>306.45286198534</ele>
        <time>2017-06-16T16:16:12Z</time>
      </trkpt>
      <trkpt lat="50.26917" lon="5.08611">
        <ele>305.09245452484</ele>
        <time>2017-06-16T16:16:16Z</time>
      </trkpt>
      <trkpt lat="50.26944" lon="5.08618">
        <ele>303.75937495404</ele>
        <time>2017-06-16T16:16:20Z</time>
      </trkpt>
      <trkpt lat="50.26982" lon="5.08626">
        <ele>302.19451996749</ele>
        <time>2017-06-16T16:16:25Z</time>
      </trkpt>
      <trkpt lat="50.27015" lon="5.08634">
        <ele>300.69020612821</ele>
        <time>2017-06-16T16:16:29Z</time>
      </trkpt>
      <trkpt lat="50.27051" lon="5.08642">
        <ele>298.96221154391</ele>
        <time>2017-06-16T16:16:33Z</time>
      </trkpt>
      <trkpt lat="50.27089" lon="5.08653">
        <ele>296.80164069842</ele>
        <time>2017-06-16T16:16:37Z</time>
      </trkpt>
      <trkpt lat="50.27125" lon="5.08675">
        <ele>295.52875564086</ele>
        <time>2017-06-16T16:16:41Z</time>
      </trkpt>
      <trkpt lat="50.27164" lon="5.08715">
        <ele>294.32724219357</ele>
        <time>2017-06-16T16:16:46Z</time>
      </trkpt>
      <trkpt lat="50.27194" lon="5.08749">
        <ele>292.75080637071</ele>
        <time>2017-06-16T16:16:50Z</time>
      </trkpt>
      <trkpt lat="50.27224" lon="5.08783">
        <ele>290.95273985346</ele>
        <time>2017-06-16T16:16:54Z</time>
      </trkpt>
      <trkpt lat="50.27258" lon="5.08816">
        <ele>288.09789731394</ele>
        <time>2017-06-16T16:16:59Z</time>
      </trkpt>
      <trkpt lat="50.27283" lon="5.08844">
        <ele>285.26804539594</ele>
        <time>2017-06-16T16:17:03Z</time>
      </trkpt>
      <trkpt lat="50.27299" lon="5.08886">
        <ele>282.29310234218</ele>
        <time>2017-06-16T16:17:07Z</time>
      </trkpt>
      <trkpt lat="50.27311" lon="5.08945">
        <ele>280.08409569958</ele>
        <time>2017-06-16T16:17:12Z</time>
      </trkpt>
      <trkpt lat="50.27328" lon="5.08986">
        <ele>278.67474560874</ele>
        <time>2017-06-16T16:17:16Z</time>
      </trkpt>
      <trkpt lat="50.27357" lon="5.0902">
        <ele>278.40033786346</ele>
        <time>2017-06-16T16:17:21Z</time>
      </trkpt>
      <trkpt lat="50.27382" lon="5.09047">
        <ele>277.51594437331</ele>
        <time>2017-06-16T16:17:25Z</time>
      </trkpt>
      <trkpt lat="50.27406" lon="5.09074">
        <ele>275.91366394204</ele>
        <time>2017-06-16T16:17:29Z</time>
      </trkpt>
      <trkpt lat="50.27436" lon="5.09096">
        <ele>273.22639591453</ele>
        <time>2017-06-16T16:17:34Z</time>
      </trkpt>
      <trkpt lat="50.27464" lon="5.09108">
        <ele>270.38794782234</ele>
        <time>2017-06-16T16:17:38Z</time>
      </trkpt>
      <trkpt lat="50.27505" lon="5.09121">
        <ele>265.89817696016</ele>
        <time>2017-06-16T16:17:43Z</time>
      </trkpt>
      <trkpt lat="50.27534" lon="5.09154">
        <ele>261.68956096121</ele>
        <time>2017-06-16T16:17:47Z</time>
      </trkpt>
      <trkpt lat="50.27559" lon="5.09206">
        <ele>259.31330050675</ele>
        <time>2017-06-16T16:17:51Z</time>
      </trkpt>
      <trkpt lat="50.2759" lon="5.09275">
        <ele>256.26586916754</ele>
        <time>2017-06-16T16:17:56Z</time>
      </trkpt>
      <trkpt lat="50.2762" lon="5.09336">
        <ele>254.4344410337</ele>
        <time>2017-06-16T16:18:01Z</time>
      </trkpt>
      <trkpt lat="50.27643" lon="5.09387">
        <ele>253.72437625981</ele>
        <time>2017-06-16T16:18:06Z</time>
      </trkpt>
      <trkpt lat="50.27666" lon="5.0943">
        <ele>254.07863000729</ele>
        <time>2017-06-16T16:18:11Z</time>
      </trkpt>
      <trkpt lat="50.2769" lon="5.09455">
        <ele>253.95964203673</ele>
        <time>2017-06-16T16:18:15Z</time>
      </trkpt>
      <trkpt lat="50.27715" lon="5.09477">
        <ele>252.96978586554</ele>
        <time>2017-06-16T16:18:19Z</time>
      </trkpt>
      <trkpt lat="50.2774" lon="5.09501">
        <ele>251.51118245039</ele>
        <time>2017-06-16T16:18:23Z</time>
      </trkpt>
      <trkpt lat="50.27767" lon="5.09528">
        <ele>249.23790951719</ele>
        <time>2017-06-16T16:18:28Z</time>
      </trkpt>
      <trkpt lat="50.27778" lon="5.09536">
        <ele>249.10400845712</ele>
        <time>2017-06-16T16:18:32Z</time>
      </trkpt>
      <trkpt lat="50.27806" lon="5.09537">
        <ele>248.43504721146</ele>
        <time>2017-06-16T16:18:37Z</time>
      </trkpt>
      <trkpt lat="50.27833" lon="5.09533">
        <ele>245.52448227995</ele>
        <time>2017-06-16T16:18:41Z</time>
      </trkpt>
      <trkpt lat="50.27867" lon="5.0952">
        <ele>244.46996461672</ele>
        <time>2017-06-16T16:18:46Z</time>
      </trkpt>
      <trkpt lat="50.279" lon="5.09502">
        <ele>243.48757931359</ele>
        <time>2017-06-16T16:18:51Z</time>
      </trkpt>
      <trkpt lat="50.27925" lon="5.09481">
        <ele>243.14076715827</ele>
        <time>2017-06-16T16:18:55Z</time>
      </trkpt>
      <trkpt lat="50.27953" lon="5.09455">
        <ele>243.21746799929</ele>
        <time>2017-06-16T16:19:00Z</time>
      </trkpt>
      <trkpt lat="50.27974" lon="5.09432">
        <ele>243.21000692592</ele>
        <time>2017-06-16T16:19:04Z</time>
      </trkpt>
      <trkpt lat="50.27997" lon="5.09397">
        <ele>243.39313808371</ele>
        <time>2017-06-16T16:19:09Z</time>
      </trkpt>
      <trkpt lat="50.28016" lon="5.09366">
        <ele>243.03502544292</ele>
        <time>2017-06-16T16:19:13Z</time>
      </trkpt>
      <trkpt lat="50.28039" lon="5.09331">
        <ele>241.79653894513</ele>
        <time>2017-06-16T16:19:18Z</time>
      </trkpt>
      <trkpt lat="50.28062" lon="5.09296">
        <ele>241.52279044301</ele>
        <time>2017-06-16T16:19:23Z</time>
      </trkpt>
      <trkpt lat="50.28079" lon="5.0927">
        <ele>240.38958035587</ele>
        <time>2017-06-16T16:19:27Z</time>
      </trkpt>
      <trkpt lat="50.28104" lon="5.09242">
        <ele>239.22692431543</ele>
        <time>2017-06-16T16:19:32Z</time>
      </trkpt>
      <trkpt lat="50.28128" lon="5.09218">
        <ele>239.20472562847</ele>
        <time>2017-06-16T16:19:37Z</time>
      </trkpt>
      <trkpt lat="50.28152" lon="5.09203">
        <ele>239.72026455098</ele>
        <time>2017-06-16T16:19:41Z</time>
      </trkpt>
      <trkpt lat="50.28176" lon="5.09195">
        <ele>242.60120506646</ele>
        <time>2017-06-16T16:19:45Z</time>
      </trkpt>
      <trkpt lat="50.28202" lon="5.09191">
        <ele>247.30658547601</ele>
        <time>2017-06-16T16:19:50Z</time>
      </trkpt>
      <trkpt lat="50.28222" lon="5.0919">
        <ele>250.71742419434</ele>
        <time>2017-06-16T16:19:54Z</time>
      </trkpt>
      <trkpt lat="50.28251" lon="5.09189">
        <ele>252.97740316409</ele>
        <time>2017-06-16T16:19:59Z</time>
      </trkpt>
      <trkpt lat="50.28275" lon="5.09188">
        <ele>252.26141660081</ele>
        <time>2017-06-16T16:20:03Z</time>
      </trkpt>
      <trkpt lat="50.283" lon="5.09184">
        <ele>249.73289885377</ele>
        <time>2017-06-16T16:20:07Z</time>
      </trkpt>
      <trkpt lat="50.28319" lon="5.0919">
        <ele>249.89333990674</ele>
        <time>2017-06-16T16:20:12Z</time>
      </trkpt>
      <trkpt lat="50.28335" lon="5.09204">
        <ele>251.75050996213</ele>
        <time>2017-06-16T16:20:16Z</time>
      </trkpt>
      <trkpt lat="50.28353" lon="5.09226">
        <ele>252.30847915839</ele>
        <time>2017-06-16T16:20:20Z</time>
      </trkpt>
      <trkpt lat="50.28374" lon="5.09269">
        <ele>251.55566151455</ele>
        <time>2017-06-16T16:20:25Z</time>
      </trkpt>
      <trkpt lat="50.28388" lon="5.09308">
        <ele>250.49026145842</ele>
        <time>2017-06-16T16:20:29Z</time>
      </trkpt>
      <trkpt lat="50.28402" lon="5.09347">
        <ele>249.70050667468</ele>
        <time>2017-06-16T16:20:33Z</time>
      </trkpt>
      <trkpt lat="50.28415" lon="5.09383">
        <ele>248.96208327899</ele>
        <time>2017-06-16T16:20:37Z</time>
      </trkpt>
      <trkpt lat="50.28429" lon="5.09422">
        <ele>248.39128273171</ele>
        <time>2017-06-16T16:20:41Z</time>
      </trkpt>
      <trkpt lat="50.28441" lon="5.09462">
        <ele>247.69767931971</ele>
        <time>2017-06-16T16:20:45Z</time>
      </trkpt>
      <trkpt lat="50.28453" lon="5.09508">
        <ele>247.14282602758</ele>
        <time>2017-06-16T16:20:50Z</time>
      </trkpt>
      <trkpt lat="50.28462" lon="5.09544">
        <ele>247.91612295638</ele>
        <time>2017-06-16T16:20:54Z</time>
      </trkpt>
      <trkpt lat="50.28472" lon="5.09579">
        <ele>249.66989573987</ele>
        <time>2017-06-16T16:20:58Z</time>
      </trkpt>
      <trkpt lat="50.28482" lon="5.09612">
        <ele>251.09500358784</ele>
        <time>2017-06-16T16:21:02Z</time>
      </trkpt>
      <trkpt lat="50.28493" lon="5.09657">
        <ele>251.22838030026</ele>
        <time>2017-06-16T16:21:07Z</time>
      </trkpt>
      <trkpt lat="50.285" lon="5.09684">
        <ele>251.17364489139</ele>
        <time>2017-06-16T16:21:11Z</time>
      </trkpt>
      <trkpt lat="50.28518" lon="5.0969">
        <ele>250.03263937443</ele>
        <time>2017-06-16T16:21:16Z</time>
      </trkpt>
      <trkpt lat="50.28539" lon="5.09675">
        <ele>249.28270537169</ele>
        <time>2017-06-16T16:21:20Z</time>
      </trkpt>
      <trkpt lat="50.28575" lon="5.09665">
        <ele>245.34602732829</ele>
        <time>2017-06-16T16:21:25Z</time>
      </trkpt>
      <trkpt lat="50.28598" lon="5.09685">
        <ele>242.20504411856</ele>
        <time>2017-06-16T16:21:29Z</time>
      </trkpt>
      <trkpt lat="50.28618" lon="5.0971">
        <ele>241.91527456711</ele>
        <time>2017-06-16T16:21:33Z</time>
      </trkpt>
      <trkpt lat="50.28636" lon="5.09731">
        <ele>242.52277746882</ele>
        <time>2017-06-16T16:21:37Z</time>
      </trkpt>
      <trkpt lat="50.28655" lon="5.09751">
        <ele>244.01587070974</ele>
        <time>2017-06-16T16:21:41Z</time>
      </trkpt>
      <trkpt lat="50.28676" lon="5.09742">
        <ele>246.31472827912</ele>
        <time>2017-06-16T16:21:46Z</time>
      </trkpt>
      <trkpt lat="50.28699" lon="5.09765">
        <ele>249.69222845005</ele>
        <time>2017-06-16T16:21:51Z</time>
      </trkpt>
      <trkpt lat="50.28712" lon="5.09794">
        <ele>250.32990596764</ele>
        <time>2017-06-16T16:21:55Z</time>
      </trkpt>
      <trkpt lat="50.28729" lon="5.09793">
        <ele>251.95555046653</ele>
        <time>2017-06-16T16:21:59Z</time>
      </trkpt>
      <trkpt lat="50.28741" lon="5.0979">
        <ele>253.77379018398</ele>
        <time>2017-06-16T16:22:03Z</time>
      </trkpt>
      <trkpt lat="50.28753" lon="5.09792">
        <ele>254.49414697617</ele>
        <time>2017-06-16T16:22:07Z</time>
      </trkpt>
      <trkpt lat="50.28768" lon="5.09782">
        <ele>258.57243708953</ele>
        <time>2017-06-16T16:22:11Z</time>
      </trkpt>
      <trkpt lat="50.28785" lon="5.09767">
        <ele>259.32563972099</ele>
        <time>2017-06-16T16:22:16Z</time>
      </trkpt>
      <trkpt lat="50.28786" lon="5.09751">
        <ele>259.26224842692</ele>
        <time>2017-06-16T16:22:20Z</time>
      </trkpt>
      <trkpt lat="50.28778" lon="5.09728">
        <ele>257.83968703419</ele>
        <time>2017-06-16T16:22:24Z</time>
      </trkpt>
      <trkpt lat="50.28766" lon="5.09705">
        <ele>256.94295652149</ele>
        <time>2017-06-16T16:22:29Z</time>
      </trkpt>
      <trkpt lat="50.28769" lon="5.09694">
        <ele>256.82306285106</ele>
        <time>2017-06-16T16:22:33Z</time>
      </trkpt>
      <trkpt lat="50.28788" lon="5.09692">
        <ele>257.28861058565</ele>
        <time>2017-06-16T16:22:37Z</time>
      </trkpt>
      <trkpt lat="50.288" lon="5.09692">
        <ele>259.26069430983</ele>
        <time>2017-06-16T16:22:41Z</time>
      </trkpt>
      <trkpt lat="50.28812" lon="5.09711">
        <ele>260.80820558537</ele>
        <time>2017-06-16T16:22:46Z</time>
      </trkpt>
      <trkpt lat="50.28828" lon="5.09736">
        <ele>262.75936197632</ele>
        <time>2017-06-16T16:22:50Z</time>
      </trkpt>
      <trkpt lat="50.28845" lon="5.09767">
        <ele>264.336794374</ele>
        <time>2017-06-16T16:22:55Z</time>
      </trkpt>
      <trkpt lat="50.28864" lon="5.09786">
        <ele>266.10818559126</ele>
        <time>2017-06-16T16:23:00Z</time>
      </trkpt>
      <trkpt lat="50.28883" lon="5.09785">
        <ele>268.02466798797</ele>
        <time>2017-06-16T16:23:04Z</time>
      </trkpt>
      <trkpt lat="50.28908" lon="5.09779">
        <ele>270.08971401504</ele>
        <time>2017-06-16T16:23:09Z</time>
      </trkpt>
      <trkpt lat="50.28932" lon="5.09785">
        <ele>271.5234524629</ele>
        <time>2017-06-16T16:23:14Z</time>
      </trkpt>
      <trkpt lat="50.28945" lon="5.09805">
        <ele>271.5227915222</ele>
        <time>2017-06-16T16:23:18Z</time>
      </trkpt>
      <trkpt lat="50.28959" lon="5.09831">
        <ele>272.35024242208</ele>
        <time>2017-06-16T16:23:22Z</time>
      </trkpt>
      <trkpt lat="50.2897" lon="5.09857">
        <ele>272.25734467959</ele>
        <time>2017-06-16T16:23:26Z</time>
      </trkpt>
      <trkpt lat="50.28984" lon="5.09881">
        <ele>271.13846509996</ele>
        <time>2017-06-16T16:23:30Z</time>
      </trkpt>
      <trkpt lat="50.28998" lon="5.09902">
        <ele>270.84642734147</ele>
        <time>2017-06-16T16:23:34Z</time>
      </trkpt>
      <trkpt lat="50.29018" lon="5.09933">
        <ele>272.48093807557</ele>
        <time>2017-06-16T16:23:39Z</time>
      </trkpt>
      <trkpt lat="50.29033" lon="5.09957">
        <ele>274.73491065246</ele>
        <time>2017-06-16T16:23:43Z</time>
      </trkpt>
      <trkpt lat="50.29049" lon="5.09983">
        <ele>276.68013148249</ele>
        <time>2017-06-16T16:23:47Z</time>
      </trkpt>
      <trkpt lat="50.29063" lon="5.10005">
        <ele>276.98405928155</ele>
        <time>2017-06-16T16:23:51Z</time>
      </trkpt>
      <trkpt lat="50.29081" lon="5.10028">
        <ele>277.63460840914</ele>
        <time>2017-06-16T16:23:56Z</time>
      </trkpt>
      <trkpt lat="50.29095" lon="5.10043">
        <ele>277.78472259846</ele>
        <time>2017-06-16T16:24:00Z</time>
      </trkpt>
      <trkpt lat="50.2912" lon="5.10054">
        <ele>277.0869326872</ele>
        <time>2017-06-16T16:24:05Z</time>
      </trkpt>
      <trkpt lat="50.29147" lon="5.10061">
        <ele>276.3332500742</ele>
        <time>2017-06-16T16:24:09Z</time>
      </trkpt>
      <trkpt lat="50.29181" lon="5.10067">
        <ele>274.1347890179</ele>
        <time>2017-06-16T16:24:14Z</time>
      </trkpt>
      <trkpt lat="50.29205" lon="5.10067">
        <ele>271.87172864741</ele>
        <time>2017-06-16T16:24:18Z</time>
      </trkpt>
      <trkpt lat="50.29214" lon="5.10045">
        <ele>268.24960451409</ele>
        <time>2017-06-16T16:24:22Z</time>
      </trkpt>
      <trkpt lat="50.29218" lon="5.10013">
        <ele>270.03101687899</ele>
        <time>2017-06-16T16:24:27Z</time>
      </trkpt>
      <trkpt lat="50.29226" lon="5.09988">
        <ele>271.13584665148</ele>
        <time>2017-06-16T16:24:31Z</time>
      </trkpt>
      <trkpt lat="50.29236" lon="5.09958">
        <ele>274.33885654991</ele>
        <time>2017-06-16T16:24:36Z</time>
      </trkpt>
      <trkpt lat="50.2925" lon="5.09931">
        <ele>273.67384204921</ele>
        <time>2017-06-16T16:24:40Z</time>
      </trkpt>
      <trkpt lat="50.29279" lon="5.09924">
        <ele>271.28602652467</ele>
        <time>2017-06-16T16:24:45Z</time>
      </trkpt>
      <trkpt lat="50.29298" lon="5.09905">
        <ele>269.65871141993</ele>
        <time>2017-06-16T16:24:50Z</time>
      </trkpt>
      <trkpt lat="50.29322" lon="5.09868">
        <ele>264.52376089166</ele>
        <time>2017-06-16T16:24:55Z</time>
      </trkpt>
      <trkpt lat="50.29341" lon="5.09841">
        <ele>259.73585767136</ele>
        <time>2017-06-16T16:24:59Z</time>
      </trkpt>
      <trkpt lat="50.29353" lon="5.09822">
        <ele>257.83392158432</ele>
        <time>2017-06-16T16:25:03Z</time>
      </trkpt>
      <trkpt lat="50.29352" lon="5.09808">
        <ele>257.77814465339</ele>
        <time>2017-06-16T16:25:09Z</time>
      </trkpt>
      <trkpt lat="50.29341" lon="5.09791">
        <ele>259.02362424508</ele>
        <time>2017-06-16T16:25:13Z</time>
      </trkpt>
      <trkpt lat="50.29343" lon="5.09777">
        <ele>261.12892274534</ele>
        <time>2017-06-16T16:25:24Z</time>
      </trkpt>
      <trkpt lat="50.29358" lon="5.09744">
        <ele>268.08503268528</ele>
        <time>2017-06-16T16:25:29Z</time>
      </trkpt>
      <trkpt lat="50.29374" lon="5.09723">
        <ele>273.94297011546</ele>
        <time>2017-06-16T16:25:33Z</time>
      </trkpt>
      <trkpt lat="50.29392" lon="5.09696">
        <ele>271.83176509295</ele>
        <time>2017-06-16T16:25:38Z</time>
      </trkpt>
      <trkpt lat="50.29398" lon="5.09683">
        <ele>271.83042916779</ele>
        <time>2017-06-16T16:25:42Z</time>
      </trkpt>
      <trkpt lat="50.29394" lon="5.09668">
        <ele>270.00641435581</ele>
        <time>2017-06-16T16:25:46Z</time>
      </trkpt>
      <trkpt lat="50.29381" lon="5.0965">
        <ele>267.83116543516</ele>
        <time>2017-06-16T16:25:50Z</time>
      </trkpt>
      <trkpt lat="50.29362" lon="5.09628">
        <ele>264.71300375472</ele>
        <time>2017-06-16T16:25:55Z</time>
      </trkpt>
      <trkpt lat="50.29346" lon="5.0961">
        <ele>261.64403017286</ele>
        <time>2017-06-16T16:25:59Z</time>
      </trkpt>
      <trkpt lat="50.29331" lon="5.09594">
        <ele>258.91968749971</ele>
        <time>2017-06-16T16:26:03Z</time>
      </trkpt>
      <trkpt lat="50.29319" lon="5.09582">
        <ele>258.33096250649</ele>
        <time>2017-06-16T16:26:07Z</time>
      </trkpt>
      <trkpt lat="50.29319" lon="5.09566">
        <ele>257.94672982056</ele>
        <time>2017-06-16T16:26:12Z</time>
      </trkpt>
      <trkpt lat="50.29332" lon="5.09546">
        <ele>258.01735674133</ele>
        <time>2017-06-16T16:26:17Z</time>
      </trkpt>
      <trkpt lat="50.29342" lon="5.09529">
        <ele>258.82638491091</ele>
        <time>2017-06-16T16:26:22Z</time>
      </trkpt>
      <trkpt lat="50.29355" lon="5.09512">
        <ele>259.13252212527</ele>
        <time>2017-06-16T16:26:27Z</time>
      </trkpt>
      <trkpt lat="50.29364" lon="5.09504">
        <ele>259.11476676226</ele>
        <time>2017-06-16T16:26:31Z</time>
      </trkpt>
      <trkpt lat="50.29374" lon="5.09514">
        <ele>260.29594831056</ele>
        <time>2017-06-16T16:26:36Z</time>
      </trkpt>
      <trkpt lat="50.2939" lon="5.09537">
        <ele>264.38291453358</ele>
        <time>2017-06-16T16:26:41Z</time>
      </trkpt>
      <trkpt lat="50.29396" lon="5.09545">
        <ele>264.8422267128</ele>
        <time>2017-06-16T16:26:45Z</time>
      </trkpt>
      <trkpt lat="50.294" lon="5.09549">
        <ele>268.15233479758</ele>
        <time>2017-06-16T16:27:59Z</time>
      </trkpt>
      <trkpt lat="50.2941" lon="5.09538">
        <ele>267.83876720267</ele>
        <time>2017-06-16T16:28:03Z</time>
      </trkpt>
      <trkpt lat="50.2941" lon="5.09538">
        <ele>267.8305243477</ele>
        <time>2017-06-16T16:28:42Z</time>
      </trkpt>
      <trkpt lat="50.2941" lon="5.09538">
        <ele>267.8305243477</ele>
        <time>2017-06-16T16:28:55Z</time>
      </trkpt>
    </trkseg>
  </trk>
</gpx>